<?xml version="1.0" encoding="UTF-8" standalone="no" ?>
<gpx xmlns="http://www.topografix.com/GPX/1/1" xmlns:xsi="http://www.w3.org/2001/XMLSchema-instance" xsi:schemaLocation="http://www.topografix.com/GPX/1/1 http://www.topografix.com/GPX/1/1/gpx.xsd" version="1.1" creator="VisuGPX - https://www.visugpx.com">
  <metadata>
    <name>geocaching en famille</name>
    <desc><![CDATA[seance geocaching en famille
Olivia 2points
Quentin 1
Marion 1
Seb 1]]></desc>
  </metadata>
  <trk>
    <name><![CDATA[2015-11-08 13:39:51]]></name>
    <trkseg>
      <trkpt lat="50.12499" lon="3.6782">
        <ele>-3.23</ele>
        <time>2015-11-08T09:34:41Z</time>
      </trkpt>
      <trkpt lat="50.125" lon="3.67815">
        <ele>0.62</ele>
        <time>2015-11-08T09:34:55Z</time>
      </trkpt>
      <trkpt lat="50.12497" lon="3.67817">
        <ele>0.62</ele>
        <time>2015-11-08T09:34:56Z</time>
      </trkpt>
      <trkpt lat="50.12495" lon="3.67817">
        <ele>4.94</ele>
        <time>2015-11-08T09:34:57Z</time>
      </trkpt>
      <trkpt lat="50.12494" lon="3.67818">
        <ele>11.19</ele>
        <time>2015-11-08T09:34:58Z</time>
      </trkpt>
      <trkpt lat="50.12494" lon="3.67818">
        <ele>19.84</ele>
        <time>2015-11-08T09:34:59Z</time>
      </trkpt>
      <trkpt lat="50.12494" lon="3.67818">
        <ele>19.84</ele>
        <time>2015-11-08T09:35:00Z</time>
      </trkpt>
      <trkpt lat="50.12493" lon="3.67818">
        <ele>24.17</ele>
        <time>2015-11-08T09:35:01Z</time>
      </trkpt>
      <trkpt lat="50.12493" lon="3.67818">
        <ele>28.5</ele>
        <time>2015-11-08T09:35:02Z</time>
      </trkpt>
      <trkpt lat="50.12492" lon="3.67818">
        <ele>32.34</ele>
        <time>2015-11-08T09:35:03Z</time>
      </trkpt>
      <trkpt lat="50.12491" lon="3.67818">
        <ele>36.19</ele>
        <time>2015-11-08T09:35:04Z</time>
      </trkpt>
      <trkpt lat="50.12491" lon="3.67818">
        <ele>39.55</ele>
        <time>2015-11-08T09:35:05Z</time>
      </trkpt>
      <trkpt lat="50.1249" lon="3.67818">
        <ele>46.76</ele>
        <time>2015-11-08T09:35:06Z</time>
      </trkpt>
      <trkpt lat="50.1249" lon="3.67818">
        <ele>46.76</ele>
        <time>2015-11-08T09:35:07Z</time>
      </trkpt>
      <trkpt lat="50.1249" lon="3.67818">
        <ele>50.13</ele>
        <time>2015-11-08T09:35:08Z</time>
      </trkpt>
      <trkpt lat="50.12489" lon="3.67819">
        <ele>53.49</ele>
        <time>2015-11-08T09:35:09Z</time>
      </trkpt>
      <trkpt lat="50.12486" lon="3.67819">
        <ele>56.37</ele>
        <time>2015-11-08T09:35:10Z</time>
      </trkpt>
      <trkpt lat="50.1248" lon="3.67819">
        <ele>59.74</ele>
        <time>2015-11-08T09:35:11Z</time>
      </trkpt>
      <trkpt lat="50.12478" lon="3.67819">
        <ele>65.03</ele>
        <time>2015-11-08T09:35:13Z</time>
      </trkpt>
      <trkpt lat="50.12477" lon="3.67819">
        <ele>69.83</ele>
        <time>2015-11-08T09:35:15Z</time>
      </trkpt>
      <trkpt lat="50.12476" lon="3.67819">
        <ele>74.16</ele>
        <time>2015-11-08T09:35:17Z</time>
      </trkpt>
      <trkpt lat="50.12476" lon="3.67819">
        <ele>78</ele>
        <time>2015-11-08T09:35:19Z</time>
      </trkpt>
      <trkpt lat="50.12476" lon="3.67819">
        <ele>81.85</ele>
        <time>2015-11-08T09:35:20Z</time>
      </trkpt>
      <trkpt lat="50.12476" lon="3.67819">
        <ele>83.29</ele>
        <time>2015-11-08T09:35:22Z</time>
      </trkpt>
      <trkpt lat="50.12476" lon="3.67819">
        <ele>86.66</ele>
        <time>2015-11-08T09:35:24Z</time>
      </trkpt>
      <trkpt lat="50.12475" lon="3.67819">
        <ele>90.02</ele>
        <time>2015-11-08T09:35:26Z</time>
      </trkpt>
      <trkpt lat="50.12475" lon="3.6782">
        <ele>92.9</ele>
        <time>2015-11-08T09:35:28Z</time>
      </trkpt>
      <trkpt lat="50.12475" lon="3.6782">
        <ele>97.23</ele>
        <time>2015-11-08T09:35:31Z</time>
      </trkpt>
      <trkpt lat="50.12474" lon="3.6782">
        <ele>101.08</ele>
        <time>2015-11-08T09:35:34Z</time>
      </trkpt>
      <trkpt lat="50.12475" lon="3.6782">
        <ele>104.44</ele>
        <time>2015-11-08T09:35:37Z</time>
      </trkpt>
      <trkpt lat="50.12474" lon="3.67819">
        <ele>108.77</ele>
        <time>2015-11-08T09:35:40Z</time>
      </trkpt>
      <trkpt lat="50.12474" lon="3.67818">
        <ele>110.69</ele>
        <time>2015-11-08T09:35:43Z</time>
      </trkpt>
      <trkpt lat="50.12474" lon="3.67817">
        <ele>114.05</ele>
        <time>2015-11-08T09:35:46Z</time>
      </trkpt>
      <trkpt lat="50.12474" lon="3.67817">
        <ele>115.01</ele>
        <time>2015-11-08T09:35:48Z</time>
      </trkpt>
      <trkpt lat="50.12473" lon="3.67816">
        <ele>118.38</ele>
        <time>2015-11-08T09:35:53Z</time>
      </trkpt>
      <trkpt lat="50.12473" lon="3.67816">
        <ele>121.74</ele>
        <time>2015-11-08T09:35:59Z</time>
      </trkpt>
      <trkpt lat="50.12473" lon="3.67815">
        <ele>124.63</ele>
        <time>2015-11-08T09:36:05Z</time>
      </trkpt>
      <trkpt lat="50.12474" lon="3.67815">
        <ele>127.03</ele>
        <time>2015-11-08T09:36:12Z</time>
      </trkpt>
      <trkpt lat="50.12474" lon="3.67814">
        <ele>130.4</ele>
        <time>2015-11-08T09:36:25Z</time>
      </trkpt>
      <trkpt lat="50.12477" lon="3.67819">
        <ele>132.8</ele>
        <time>2015-11-08T09:36:43Z</time>
      </trkpt>
      <trkpt lat="50.12483" lon="3.67825">
        <ele>132.8</ele>
        <time>2015-11-08T09:36:55Z</time>
      </trkpt>
      <trkpt lat="50.1248" lon="3.67821">
        <ele>132.8</ele>
        <time>2015-11-08T09:37:09Z</time>
      </trkpt>
      <trkpt lat="50.12476" lon="3.67817">
        <ele>132.8</ele>
        <time>2015-11-08T09:37:22Z</time>
      </trkpt>
      <trkpt lat="50.12488" lon="3.67824">
        <ele>133.28</ele>
        <time>2015-11-08T09:37:34Z</time>
      </trkpt>
      <trkpt lat="50.12518" lon="3.67852">
        <ele>133.28</ele>
        <time>2015-11-08T09:37:47Z</time>
      </trkpt>
      <trkpt lat="50.12541" lon="3.67877">
        <ele>133.28</ele>
        <time>2015-11-08T09:37:57Z</time>
      </trkpt>
      <trkpt lat="50.12572" lon="3.67901">
        <ele>133.28</ele>
        <time>2015-11-08T09:38:10Z</time>
      </trkpt>
      <trkpt lat="50.12594" lon="3.67933">
        <ele>133.28</ele>
        <time>2015-11-08T09:38:21Z</time>
      </trkpt>
      <trkpt lat="50.12602" lon="3.67948">
        <ele>133.76</ele>
        <time>2015-11-08T09:38:31Z</time>
      </trkpt>
      <trkpt lat="50.12602" lon="3.67958">
        <ele>134.24</ele>
        <time>2015-11-08T09:39:07Z</time>
      </trkpt>
      <trkpt lat="50.12615" lon="3.67984">
        <ele>134.24</ele>
        <time>2015-11-08T09:39:18Z</time>
      </trkpt>
      <trkpt lat="50.12636" lon="3.68024">
        <ele>133.28</ele>
        <time>2015-11-08T09:39:32Z</time>
      </trkpt>
      <trkpt lat="50.12655" lon="3.68061">
        <ele>132.8</ele>
        <time>2015-11-08T09:39:46Z</time>
      </trkpt>
      <trkpt lat="50.12659" lon="3.68072">
        <ele>132.8</ele>
        <time>2015-11-08T09:39:50Z</time>
      </trkpt>
      <trkpt lat="50.1266" lon="3.68075">
        <ele>132.8</ele>
        <time>2015-11-08T09:39:51Z</time>
      </trkpt>
      <trkpt lat="50.12674" lon="3.68107">
        <ele>132.8</ele>
        <time>2015-11-08T09:40:03Z</time>
      </trkpt>
      <trkpt lat="50.12691" lon="3.68143">
        <ele>132.8</ele>
        <time>2015-11-08T09:40:17Z</time>
      </trkpt>
      <trkpt lat="50.12717" lon="3.68198">
        <ele>132.8</ele>
        <time>2015-11-08T09:40:30Z</time>
      </trkpt>
      <trkpt lat="50.12732" lon="3.68243">
        <ele>134.24</ele>
        <time>2015-11-08T09:40:40Z</time>
      </trkpt>
      <trkpt lat="50.12732" lon="3.68245">
        <ele>134.24</ele>
        <time>2015-11-08T09:40:41Z</time>
      </trkpt>
      <trkpt lat="50.12732" lon="3.68248">
        <ele>134.24</ele>
        <time>2015-11-08T09:40:42Z</time>
      </trkpt>
      <trkpt lat="50.12733" lon="3.68251">
        <ele>134.72</ele>
        <time>2015-11-08T09:40:43Z</time>
      </trkpt>
      <trkpt lat="50.12735" lon="3.68253">
        <ele>134.72</ele>
        <time>2015-11-08T09:40:44Z</time>
      </trkpt>
      <trkpt lat="50.12737" lon="3.68254">
        <ele>134.72</ele>
        <time>2015-11-08T09:40:45Z</time>
      </trkpt>
      <trkpt lat="50.12738" lon="3.68257">
        <ele>134.72</ele>
        <time>2015-11-08T09:40:46Z</time>
      </trkpt>
      <trkpt lat="50.12739" lon="3.6826">
        <ele>134.72</ele>
        <time>2015-11-08T09:40:47Z</time>
      </trkpt>
      <trkpt lat="50.12755" lon="3.68309">
        <ele>134.72</ele>
        <time>2015-11-08T09:41:00Z</time>
      </trkpt>
      <trkpt lat="50.1277" lon="3.68364">
        <ele>134.72</ele>
        <time>2015-11-08T09:41:14Z</time>
      </trkpt>
      <trkpt lat="50.12774" lon="3.68378">
        <ele>134.72</ele>
        <time>2015-11-08T09:41:18Z</time>
      </trkpt>
      <trkpt lat="50.12782" lon="3.68397">
        <ele>134.72</ele>
        <time>2015-11-08T09:41:25Z</time>
      </trkpt>
      <trkpt lat="50.12783" lon="3.684">
        <ele>134.72</ele>
        <time>2015-11-08T09:41:26Z</time>
      </trkpt>
      <trkpt lat="50.12785" lon="3.68402">
        <ele>134.72</ele>
        <time>2015-11-08T09:41:27Z</time>
      </trkpt>
      <trkpt lat="50.12786" lon="3.68405">
        <ele>134.72</ele>
        <time>2015-11-08T09:41:28Z</time>
      </trkpt>
      <trkpt lat="50.12787" lon="3.68408">
        <ele>134.72</ele>
        <time>2015-11-08T09:41:29Z</time>
      </trkpt>
      <trkpt lat="50.12789" lon="3.6841">
        <ele>134.72</ele>
        <time>2015-11-08T09:41:30Z</time>
      </trkpt>
      <trkpt lat="50.1279" lon="3.68414">
        <ele>134.72</ele>
        <time>2015-11-08T09:41:31Z</time>
      </trkpt>
      <trkpt lat="50.12791" lon="3.68417">
        <ele>134.72</ele>
        <time>2015-11-08T09:41:32Z</time>
      </trkpt>
      <trkpt lat="50.12793" lon="3.68421">
        <ele>134.72</ele>
        <time>2015-11-08T09:41:33Z</time>
      </trkpt>
      <trkpt lat="50.12794" lon="3.68424">
        <ele>134.72</ele>
        <time>2015-11-08T09:41:34Z</time>
      </trkpt>
      <trkpt lat="50.12802" lon="3.68446">
        <ele>134.72</ele>
        <time>2015-11-08T09:41:43Z</time>
      </trkpt>
      <trkpt lat="50.12804" lon="3.68447">
        <ele>134.72</ele>
        <time>2015-11-08T09:41:44Z</time>
      </trkpt>
      <trkpt lat="50.12805" lon="3.68446">
        <ele>134.72</ele>
        <time>2015-11-08T09:41:45Z</time>
      </trkpt>
      <trkpt lat="50.12807" lon="3.68444">
        <ele>134.72</ele>
        <time>2015-11-08T09:41:46Z</time>
      </trkpt>
      <trkpt lat="50.12809" lon="3.68442">
        <ele>134.72</ele>
        <time>2015-11-08T09:41:47Z</time>
      </trkpt>
      <trkpt lat="50.12811" lon="3.6844">
        <ele>134.72</ele>
        <time>2015-11-08T09:41:48Z</time>
      </trkpt>
      <trkpt lat="50.12815" lon="3.68437">
        <ele>135.2</ele>
        <time>2015-11-08T09:41:50Z</time>
      </trkpt>
      <trkpt lat="50.12817" lon="3.68435">
        <ele>135.2</ele>
        <time>2015-11-08T09:41:51Z</time>
      </trkpt>
      <trkpt lat="50.12818" lon="3.68433">
        <ele>135.2</ele>
        <time>2015-11-08T09:41:52Z</time>
      </trkpt>
      <trkpt lat="50.1282" lon="3.68431">
        <ele>135.2</ele>
        <time>2015-11-08T09:41:53Z</time>
      </trkpt>
      <trkpt lat="50.12821" lon="3.68431">
        <ele>135.2</ele>
        <time>2015-11-08T09:41:54Z</time>
      </trkpt>
      <trkpt lat="50.12824" lon="3.6843">
        <ele>135.2</ele>
        <time>2015-11-08T09:41:55Z</time>
      </trkpt>
      <trkpt lat="50.12826" lon="3.68429">
        <ele>135.2</ele>
        <time>2015-11-08T09:41:56Z</time>
      </trkpt>
      <trkpt lat="50.12828" lon="3.68427">
        <ele>135.2</ele>
        <time>2015-11-08T09:41:57Z</time>
      </trkpt>
      <trkpt lat="50.12829" lon="3.68426">
        <ele>135.68</ele>
        <time>2015-11-08T09:41:58Z</time>
      </trkpt>
      <trkpt lat="50.12831" lon="3.68424">
        <ele>135.68</ele>
        <time>2015-11-08T09:41:59Z</time>
      </trkpt>
      <trkpt lat="50.12833" lon="3.68422">
        <ele>135.68</ele>
        <time>2015-11-08T09:42:00Z</time>
      </trkpt>
      <trkpt lat="50.12853" lon="3.68391">
        <ele>136.64</ele>
        <time>2015-11-08T09:42:14Z</time>
      </trkpt>
      <trkpt lat="50.12856" lon="3.68392">
        <ele>136.64</ele>
        <time>2015-11-08T09:42:15Z</time>
      </trkpt>
      <trkpt lat="50.12857" lon="3.68394">
        <ele>136.64</ele>
        <time>2015-11-08T09:42:16Z</time>
      </trkpt>
      <trkpt lat="50.12878" lon="3.6843">
        <ele>137.61</ele>
        <time>2015-11-08T09:42:29Z</time>
      </trkpt>
      <trkpt lat="50.12891" lon="3.68467">
        <ele>137.61</ele>
        <time>2015-11-08T09:42:40Z</time>
      </trkpt>
      <trkpt lat="50.12905" lon="3.68515">
        <ele>138.09</ele>
        <time>2015-11-08T09:42:56Z</time>
      </trkpt>
      <trkpt lat="50.12918" lon="3.68559">
        <ele>138.09</ele>
        <time>2015-11-08T09:43:09Z</time>
      </trkpt>
      <trkpt lat="50.12937" lon="3.68614">
        <ele>136.64</ele>
        <time>2015-11-08T09:43:23Z</time>
      </trkpt>
      <trkpt lat="50.12943" lon="3.6864">
        <ele>136.64</ele>
        <time>2015-11-08T09:43:29Z</time>
      </trkpt>
      <trkpt lat="50.12942" lon="3.68643">
        <ele>136.16</ele>
        <time>2015-11-08T09:43:30Z</time>
      </trkpt>
      <trkpt lat="50.12912" lon="3.68685">
        <ele>135.68</ele>
        <time>2015-11-08T09:43:44Z</time>
      </trkpt>
      <trkpt lat="50.12887" lon="3.68715">
        <ele>133.76</ele>
        <time>2015-11-08T09:43:55Z</time>
      </trkpt>
      <trkpt lat="50.12883" lon="3.68713">
        <ele>133.76</ele>
        <time>2015-11-08T09:43:56Z</time>
      </trkpt>
      <trkpt lat="50.1288" lon="3.6871">
        <ele>133.76</ele>
        <time>2015-11-08T09:43:57Z</time>
      </trkpt>
      <trkpt lat="50.12862" lon="3.68687">
        <ele>133.76</ele>
        <time>2015-11-08T09:44:02Z</time>
      </trkpt>
      <trkpt lat="50.12829" lon="3.68645">
        <ele>133.76</ele>
        <time>2015-11-08T09:44:14Z</time>
      </trkpt>
      <trkpt lat="50.12813" lon="3.68621">
        <ele>133.76</ele>
        <time>2015-11-08T09:44:24Z</time>
      </trkpt>
      <trkpt lat="50.12812" lon="3.6862">
        <ele>133.76</ele>
        <time>2015-11-08T09:44:38Z</time>
      </trkpt>
      <trkpt lat="50.12811" lon="3.68616">
        <ele>133.76</ele>
        <time>2015-11-08T09:44:41Z</time>
      </trkpt>
      <trkpt lat="50.12811" lon="3.68614">
        <ele>133.76</ele>
        <time>2015-11-08T09:44:42Z</time>
      </trkpt>
      <trkpt lat="50.12811" lon="3.68611">
        <ele>133.76</ele>
        <time>2015-11-08T09:44:43Z</time>
      </trkpt>
      <trkpt lat="50.12811" lon="3.68608">
        <ele>133.76</ele>
        <time>2015-11-08T09:44:44Z</time>
      </trkpt>
      <trkpt lat="50.12812" lon="3.68604">
        <ele>133.76</ele>
        <time>2015-11-08T09:44:45Z</time>
      </trkpt>
      <trkpt lat="50.12813" lon="3.686">
        <ele>133.76</ele>
        <time>2015-11-08T09:44:46Z</time>
      </trkpt>
      <trkpt lat="50.12814" lon="3.68595">
        <ele>133.76</ele>
        <time>2015-11-08T09:44:47Z</time>
      </trkpt>
      <trkpt lat="50.12815" lon="3.6859">
        <ele>133.76</ele>
        <time>2015-11-08T09:44:48Z</time>
      </trkpt>
      <trkpt lat="50.12822" lon="3.68551">
        <ele>135.2</ele>
        <time>2015-11-08T09:44:56Z</time>
      </trkpt>
      <trkpt lat="50.12831" lon="3.68504">
        <ele>137.61</ele>
        <time>2015-11-08T09:45:11Z</time>
      </trkpt>
      <trkpt lat="50.1284" lon="3.68465">
        <ele>139.53</ele>
        <time>2015-11-08T09:45:26Z</time>
      </trkpt>
      <trkpt lat="50.12851" lon="3.68425">
        <ele>140.97</ele>
        <time>2015-11-08T09:45:41Z</time>
      </trkpt>
      <trkpt lat="50.12865" lon="3.68393">
        <ele>142.41</ele>
        <time>2015-11-08T09:45:52Z</time>
      </trkpt>
      <trkpt lat="50.12891" lon="3.68356">
        <ele>144.34</ele>
        <time>2015-11-08T09:46:08Z</time>
      </trkpt>
      <trkpt lat="50.12925" lon="3.6833">
        <ele>143.85</ele>
        <time>2015-11-08T09:46:21Z</time>
      </trkpt>
      <trkpt lat="50.12932" lon="3.68326">
        <ele>142.89</ele>
        <time>2015-11-08T09:46:23Z</time>
      </trkpt>
      <trkpt lat="50.12966" lon="3.68316">
        <ele>141.45</ele>
        <time>2015-11-08T09:46:32Z</time>
      </trkpt>
      <trkpt lat="50.12969" lon="3.68318">
        <ele>141.45</ele>
        <time>2015-11-08T09:46:33Z</time>
      </trkpt>
      <trkpt lat="50.12973" lon="3.68319">
        <ele>140.97</ele>
        <time>2015-11-08T09:46:34Z</time>
      </trkpt>
      <trkpt lat="50.12977" lon="3.68317">
        <ele>140.97</ele>
        <time>2015-11-08T09:46:35Z</time>
      </trkpt>
      <trkpt lat="50.1298" lon="3.68315">
        <ele>140.97</ele>
        <time>2015-11-08T09:46:36Z</time>
      </trkpt>
      <trkpt lat="50.12982" lon="3.6831">
        <ele>140.97</ele>
        <time>2015-11-08T09:46:37Z</time>
      </trkpt>
      <trkpt lat="50.12984" lon="3.68304">
        <ele>140.97</ele>
        <time>2015-11-08T09:46:38Z</time>
      </trkpt>
      <trkpt lat="50.12984" lon="3.68301">
        <ele>140.97</ele>
        <time>2015-11-08T09:46:39Z</time>
      </trkpt>
      <trkpt lat="50.12984" lon="3.68296">
        <ele>140.97</ele>
        <time>2015-11-08T09:46:40Z</time>
      </trkpt>
      <trkpt lat="50.12983" lon="3.68293">
        <ele>140.97</ele>
        <time>2015-11-08T09:46:41Z</time>
      </trkpt>
      <trkpt lat="50.12983" lon="3.68288">
        <ele>140.97</ele>
        <time>2015-11-08T09:46:42Z</time>
      </trkpt>
      <trkpt lat="50.12987" lon="3.68233">
        <ele>142.41</ele>
        <time>2015-11-08T09:46:55Z</time>
      </trkpt>
      <trkpt lat="50.12988" lon="3.68229">
        <ele>142.41</ele>
        <time>2015-11-08T09:46:56Z</time>
      </trkpt>
      <trkpt lat="50.12993" lon="3.68187">
        <ele>143.85</ele>
        <time>2015-11-08T09:47:10Z</time>
      </trkpt>
      <trkpt lat="50.13001" lon="3.68137">
        <ele>144.34</ele>
        <time>2015-11-08T09:47:22Z</time>
      </trkpt>
      <trkpt lat="50.13008" lon="3.68093">
        <ele>144.82</ele>
        <time>2015-11-08T09:47:32Z</time>
      </trkpt>
      <trkpt lat="50.13018" lon="3.68035">
        <ele>145.78</ele>
        <time>2015-11-08T09:47:45Z</time>
      </trkpt>
      <trkpt lat="50.13027" lon="3.67978">
        <ele>146.26</ele>
        <time>2015-11-08T09:47:59Z</time>
      </trkpt>
      <trkpt lat="50.13038" lon="3.67917">
        <ele>147.7</ele>
        <time>2015-11-08T09:48:15Z</time>
      </trkpt>
      <trkpt lat="50.13051" lon="3.67865">
        <ele>148.18</ele>
        <time>2015-11-08T09:48:30Z</time>
      </trkpt>
      <trkpt lat="50.13065" lon="3.67807">
        <ele>149.14</ele>
        <time>2015-11-08T09:48:46Z</time>
      </trkpt>
      <trkpt lat="50.13079" lon="3.67744">
        <ele>150.1</ele>
        <time>2015-11-08T09:49:03Z</time>
      </trkpt>
      <trkpt lat="50.13089" lon="3.67701">
        <ele>150.58</ele>
        <time>2015-11-08T09:49:16Z</time>
      </trkpt>
      <trkpt lat="50.13101" lon="3.67654">
        <ele>151.06</ele>
        <time>2015-11-08T09:49:29Z</time>
      </trkpt>
      <trkpt lat="50.13112" lon="3.67607">
        <ele>151.54</ele>
        <time>2015-11-08T09:49:44Z</time>
      </trkpt>
      <trkpt lat="50.13121" lon="3.67573">
        <ele>152.51</ele>
        <time>2015-11-08T09:49:58Z</time>
      </trkpt>
      <trkpt lat="50.13121" lon="3.67571">
        <ele>152.51</ele>
        <time>2015-11-08T09:49:59Z</time>
      </trkpt>
      <trkpt lat="50.13122" lon="3.67569">
        <ele>152.51</ele>
        <time>2015-11-08T09:50:00Z</time>
      </trkpt>
      <trkpt lat="50.13123" lon="3.67564">
        <ele>152.51</ele>
        <time>2015-11-08T09:50:02Z</time>
      </trkpt>
      <trkpt lat="50.13124" lon="3.67561">
        <ele>152.51</ele>
        <time>2015-11-08T09:50:03Z</time>
      </trkpt>
      <trkpt lat="50.13131" lon="3.67536">
        <ele>152.51</ele>
        <time>2015-11-08T09:50:13Z</time>
      </trkpt>
      <trkpt lat="50.13137" lon="3.67523">
        <ele>152.99</ele>
        <time>2015-11-08T09:50:18Z</time>
      </trkpt>
      <trkpt lat="50.13137" lon="3.67519">
        <ele>152.99</ele>
        <time>2015-11-08T09:50:19Z</time>
      </trkpt>
      <trkpt lat="50.13138" lon="3.67515">
        <ele>152.99</ele>
        <time>2015-11-08T09:50:20Z</time>
      </trkpt>
      <trkpt lat="50.13139" lon="3.67512">
        <ele>152.99</ele>
        <time>2015-11-08T09:50:21Z</time>
      </trkpt>
      <trkpt lat="50.1314" lon="3.67508">
        <ele>152.99</ele>
        <time>2015-11-08T09:50:22Z</time>
      </trkpt>
      <trkpt lat="50.13151" lon="3.67473">
        <ele>153.47</ele>
        <time>2015-11-08T09:50:34Z</time>
      </trkpt>
      <trkpt lat="50.13161" lon="3.67443">
        <ele>153.95</ele>
        <time>2015-11-08T09:50:46Z</time>
      </trkpt>
      <trkpt lat="50.13179" lon="3.67394">
        <ele>154.91</ele>
        <time>2015-11-08T09:51:02Z</time>
      </trkpt>
      <trkpt lat="50.13183" lon="3.67386">
        <ele>154.91</ele>
        <time>2015-11-08T09:51:15Z</time>
      </trkpt>
      <trkpt lat="50.13186" lon="3.67379">
        <ele>154.91</ele>
        <time>2015-11-08T09:51:30Z</time>
      </trkpt>
      <trkpt lat="50.13185" lon="3.67379">
        <ele>154.91</ele>
        <time>2015-11-08T09:51:47Z</time>
      </trkpt>
      <trkpt lat="50.13185" lon="3.67378">
        <ele>154.91</ele>
        <time>2015-11-08T09:52:01Z</time>
      </trkpt>
      <trkpt lat="50.13189" lon="3.67367">
        <ele>154.91</ele>
        <time>2015-11-08T09:52:18Z</time>
      </trkpt>
      <trkpt lat="50.13206" lon="3.67321">
        <ele>154.91</ele>
        <time>2015-11-08T09:52:31Z</time>
      </trkpt>
      <trkpt lat="50.13235" lon="3.67249">
        <ele>155.39</ele>
        <time>2015-11-08T09:52:51Z</time>
      </trkpt>
      <trkpt lat="50.13252" lon="3.67206">
        <ele>155.39</ele>
        <time>2015-11-08T09:53:03Z</time>
      </trkpt>
      <trkpt lat="50.13271" lon="3.67158">
        <ele>156.35</ele>
        <time>2015-11-08T09:53:15Z</time>
      </trkpt>
      <trkpt lat="50.13289" lon="3.67109">
        <ele>156.35</ele>
        <time>2015-11-08T09:53:29Z</time>
      </trkpt>
      <trkpt lat="50.13304" lon="3.67063">
        <ele>157.31</ele>
        <time>2015-11-08T09:53:42Z</time>
      </trkpt>
      <trkpt lat="50.13322" lon="3.67012">
        <ele>158.27</ele>
        <time>2015-11-08T09:53:57Z</time>
      </trkpt>
      <trkpt lat="50.13348" lon="3.66954">
        <ele>160.2</ele>
        <time>2015-11-08T09:54:11Z</time>
      </trkpt>
      <trkpt lat="50.13373" lon="3.66923">
        <ele>161.64</ele>
        <time>2015-11-08T09:54:23Z</time>
      </trkpt>
      <trkpt lat="50.13413" lon="3.66878">
        <ele>162.6</ele>
        <time>2015-11-08T09:54:42Z</time>
      </trkpt>
      <trkpt lat="50.13447" lon="3.66837">
        <ele>163.56</ele>
        <time>2015-11-08T09:54:57Z</time>
      </trkpt>
      <trkpt lat="50.13482" lon="3.66787">
        <ele>164.04</ele>
        <time>2015-11-08T09:55:15Z</time>
      </trkpt>
      <trkpt lat="50.13508" lon="3.6673">
        <ele>164.52</ele>
        <time>2015-11-08T09:55:31Z</time>
      </trkpt>
      <trkpt lat="50.13529" lon="3.66668">
        <ele>164.52</ele>
        <time>2015-11-08T09:55:46Z</time>
      </trkpt>
      <trkpt lat="50.13549" lon="3.66612">
        <ele>164.52</ele>
        <time>2015-11-08T09:55:59Z</time>
      </trkpt>
      <trkpt lat="50.13571" lon="3.66542">
        <ele>163.08</ele>
        <time>2015-11-08T09:56:12Z</time>
      </trkpt>
      <trkpt lat="50.13599" lon="3.66465">
        <ele>162.12</ele>
        <time>2015-11-08T09:56:28Z</time>
      </trkpt>
      <trkpt lat="50.13626" lon="3.66392">
        <ele>162.12</ele>
        <time>2015-11-08T09:56:44Z</time>
      </trkpt>
      <trkpt lat="50.13651" lon="3.66325">
        <ele>161.64</ele>
        <time>2015-11-08T09:56:58Z</time>
      </trkpt>
      <trkpt lat="50.13653" lon="3.6632">
        <ele>161.64</ele>
        <time>2015-11-08T09:56:59Z</time>
      </trkpt>
      <trkpt lat="50.13683" lon="3.66242">
        <ele>161.64</ele>
        <time>2015-11-08T09:57:14Z</time>
      </trkpt>
      <trkpt lat="50.13701" lon="3.66197">
        <ele>163.08</ele>
        <time>2015-11-08T09:57:24Z</time>
      </trkpt>
      <trkpt lat="50.13719" lon="3.66143">
        <ele>163.56</ele>
        <time>2015-11-08T09:57:38Z</time>
      </trkpt>
      <trkpt lat="50.13732" lon="3.66081">
        <ele>164.04</ele>
        <time>2015-11-08T09:57:53Z</time>
      </trkpt>
      <trkpt lat="50.13745" lon="3.66013">
        <ele>164.52</ele>
        <time>2015-11-08T09:58:10Z</time>
      </trkpt>
      <trkpt lat="50.13751" lon="3.65946">
        <ele>165</ele>
        <time>2015-11-08T09:58:28Z</time>
      </trkpt>
      <trkpt lat="50.1375" lon="3.65893">
        <ele>165</ele>
        <time>2015-11-08T09:58:40Z</time>
      </trkpt>
      <trkpt lat="50.13753" lon="3.65842">
        <ele>165</ele>
        <time>2015-11-08T09:58:53Z</time>
      </trkpt>
      <trkpt lat="50.13754" lon="3.6579">
        <ele>165</ele>
        <time>2015-11-08T09:59:06Z</time>
      </trkpt>
      <trkpt lat="50.13752" lon="3.65788">
        <ele>165</ele>
        <time>2015-11-08T09:59:07Z</time>
      </trkpt>
      <trkpt lat="50.1375" lon="3.65785">
        <ele>165</ele>
        <time>2015-11-08T09:59:08Z</time>
      </trkpt>
      <trkpt lat="50.13721" lon="3.65749">
        <ele>165.48</ele>
        <time>2015-11-08T09:59:23Z</time>
      </trkpt>
      <trkpt lat="50.13688" lon="3.65706">
        <ele>165.48</ele>
        <time>2015-11-08T09:59:40Z</time>
      </trkpt>
      <trkpt lat="50.13644" lon="3.65634">
        <ele>163.08</ele>
        <time>2015-11-08T09:59:59Z</time>
      </trkpt>
      <trkpt lat="50.13641" lon="3.65628">
        <ele>163.08</ele>
        <time>2015-11-08T10:00:00Z</time>
      </trkpt>
      <trkpt lat="50.13639" lon="3.65622">
        <ele>162.6</ele>
        <time>2015-11-08T10:00:01Z</time>
      </trkpt>
      <trkpt lat="50.13604" lon="3.65553">
        <ele>162.12</ele>
        <time>2015-11-08T10:00:15Z</time>
      </trkpt>
      <trkpt lat="50.13578" lon="3.65481">
        <ele>161.16</ele>
        <time>2015-11-08T10:00:28Z</time>
      </trkpt>
      <trkpt lat="50.13574" lon="3.65463">
        <ele>161.16</ele>
        <time>2015-11-08T10:00:31Z</time>
      </trkpt>
      <trkpt lat="50.13573" lon="3.65457">
        <ele>161.16</ele>
        <time>2015-11-08T10:00:32Z</time>
      </trkpt>
      <trkpt lat="50.13556" lon="3.65385">
        <ele>161.16</ele>
        <time>2015-11-08T10:00:48Z</time>
      </trkpt>
      <trkpt lat="50.1354" lon="3.65321">
        <ele>161.16</ele>
        <time>2015-11-08T10:01:04Z</time>
      </trkpt>
      <trkpt lat="50.1353" lon="3.65272">
        <ele>161.64</ele>
        <time>2015-11-08T10:01:18Z</time>
      </trkpt>
      <trkpt lat="50.1352" lon="3.65202">
        <ele>161.64</ele>
        <time>2015-11-08T10:01:34Z</time>
      </trkpt>
      <trkpt lat="50.13508" lon="3.65116">
        <ele>161.64</ele>
        <time>2015-11-08T10:01:48Z</time>
      </trkpt>
      <trkpt lat="50.13495" lon="3.65043">
        <ele>161.64</ele>
        <time>2015-11-08T10:02:03Z</time>
      </trkpt>
      <trkpt lat="50.1349" lon="3.65019">
        <ele>162.6</ele>
        <time>2015-11-08T10:02:10Z</time>
      </trkpt>
      <trkpt lat="50.1349" lon="3.65016">
        <ele>162.6</ele>
        <time>2015-11-08T10:02:11Z</time>
      </trkpt>
      <trkpt lat="50.13489" lon="3.65012">
        <ele>162.6</ele>
        <time>2015-11-08T10:02:12Z</time>
      </trkpt>
      <trkpt lat="50.13474" lon="3.64963">
        <ele>162.6</ele>
        <time>2015-11-08T10:02:24Z</time>
      </trkpt>
      <trkpt lat="50.13465" lon="3.64929">
        <ele>163.08</ele>
        <time>2015-11-08T10:02:36Z</time>
      </trkpt>
      <trkpt lat="50.13464" lon="3.64927">
        <ele>163.08</ele>
        <time>2015-11-08T10:02:37Z</time>
      </trkpt>
      <trkpt lat="50.13464" lon="3.64926">
        <ele>163.08</ele>
        <time>2015-11-08T10:02:38Z</time>
      </trkpt>
      <trkpt lat="50.13463" lon="3.64924">
        <ele>163.08</ele>
        <time>2015-11-08T10:02:39Z</time>
      </trkpt>
      <trkpt lat="50.13463" lon="3.64922">
        <ele>163.08</ele>
        <time>2015-11-08T10:02:40Z</time>
      </trkpt>
      <trkpt lat="50.13462" lon="3.64919">
        <ele>163.08</ele>
        <time>2015-11-08T10:02:41Z</time>
      </trkpt>
      <trkpt lat="50.13461" lon="3.64917">
        <ele>163.08</ele>
        <time>2015-11-08T10:02:42Z</time>
      </trkpt>
      <trkpt lat="50.1346" lon="3.64916">
        <ele>163.08</ele>
        <time>2015-11-08T10:02:43Z</time>
      </trkpt>
      <trkpt lat="50.13459" lon="3.64914">
        <ele>163.08</ele>
        <time>2015-11-08T10:02:44Z</time>
      </trkpt>
      <trkpt lat="50.13458" lon="3.64912">
        <ele>163.08</ele>
        <time>2015-11-08T10:02:45Z</time>
      </trkpt>
      <trkpt lat="50.13457" lon="3.64909">
        <ele>163.08</ele>
        <time>2015-11-08T10:02:46Z</time>
      </trkpt>
      <trkpt lat="50.13456" lon="3.64905">
        <ele>163.08</ele>
        <time>2015-11-08T10:02:47Z</time>
      </trkpt>
      <trkpt lat="50.13455" lon="3.649">
        <ele>163.08</ele>
        <time>2015-11-08T10:02:48Z</time>
      </trkpt>
      <trkpt lat="50.13454" lon="3.64896">
        <ele>163.08</ele>
        <time>2015-11-08T10:02:49Z</time>
      </trkpt>
      <trkpt lat="50.13452" lon="3.64891">
        <ele>163.08</ele>
        <time>2015-11-08T10:02:50Z</time>
      </trkpt>
      <trkpt lat="50.13451" lon="3.64886">
        <ele>163.08</ele>
        <time>2015-11-08T10:02:51Z</time>
      </trkpt>
      <trkpt lat="50.13436" lon="3.6483">
        <ele>162.12</ele>
        <time>2015-11-08T10:03:05Z</time>
      </trkpt>
      <trkpt lat="50.13428" lon="3.64763">
        <ele>161.64</ele>
        <time>2015-11-08T10:03:17Z</time>
      </trkpt>
      <trkpt lat="50.13419" lon="3.64696">
        <ele>161.16</ele>
        <time>2015-11-08T10:03:32Z</time>
      </trkpt>
      <trkpt lat="50.13409" lon="3.64629">
        <ele>160.68</ele>
        <time>2015-11-08T10:03:46Z</time>
      </trkpt>
      <trkpt lat="50.134" lon="3.64578">
        <ele>160.68</ele>
        <time>2015-11-08T10:03:59Z</time>
      </trkpt>
      <trkpt lat="50.13394" lon="3.64524">
        <ele>160.68</ele>
        <time>2015-11-08T10:04:13Z</time>
      </trkpt>
      <trkpt lat="50.13389" lon="3.64475">
        <ele>160.2</ele>
        <time>2015-11-08T10:04:25Z</time>
      </trkpt>
      <trkpt lat="50.13385" lon="3.64427">
        <ele>160.2</ele>
        <time>2015-11-08T10:04:37Z</time>
      </trkpt>
      <trkpt lat="50.13378" lon="3.64359">
        <ele>159.72</ele>
        <time>2015-11-08T10:04:51Z</time>
      </trkpt>
      <trkpt lat="50.13366" lon="3.64298">
        <ele>159.72</ele>
        <time>2015-11-08T10:05:05Z</time>
      </trkpt>
      <trkpt lat="50.13353" lon="3.64242">
        <ele>159.72</ele>
        <time>2015-11-08T10:05:14Z</time>
      </trkpt>
      <trkpt lat="50.13352" lon="3.64236">
        <ele>159.72</ele>
        <time>2015-11-08T10:05:15Z</time>
      </trkpt>
      <trkpt lat="50.13342" lon="3.64165">
        <ele>161.16</ele>
        <time>2015-11-08T10:05:28Z</time>
      </trkpt>
      <trkpt lat="50.13336" lon="3.64086">
        <ele>161.16</ele>
        <time>2015-11-08T10:05:43Z</time>
      </trkpt>
      <trkpt lat="50.13336" lon="3.64036">
        <ele>162.12</ele>
        <time>2015-11-08T10:05:57Z</time>
      </trkpt>
      <trkpt lat="50.13337" lon="3.64035">
        <ele>162.12</ele>
        <time>2015-11-08T10:05:58Z</time>
      </trkpt>
      <trkpt lat="50.13337" lon="3.64033">
        <ele>162.12</ele>
        <time>2015-11-08T10:05:59Z</time>
      </trkpt>
      <trkpt lat="50.13337" lon="3.6403">
        <ele>162.12</ele>
        <time>2015-11-08T10:06:00Z</time>
      </trkpt>
      <trkpt lat="50.13336" lon="3.64028">
        <ele>162.12</ele>
        <time>2015-11-08T10:06:01Z</time>
      </trkpt>
      <trkpt lat="50.13334" lon="3.64026">
        <ele>162.12</ele>
        <time>2015-11-08T10:06:02Z</time>
      </trkpt>
      <trkpt lat="50.13332" lon="3.64025">
        <ele>162.12</ele>
        <time>2015-11-08T10:06:03Z</time>
      </trkpt>
      <trkpt lat="50.1333" lon="3.64023">
        <ele>162.12</ele>
        <time>2015-11-08T10:06:04Z</time>
      </trkpt>
      <trkpt lat="50.13328" lon="3.64022">
        <ele>162.12</ele>
        <time>2015-11-08T10:06:05Z</time>
      </trkpt>
      <trkpt lat="50.13326" lon="3.6402">
        <ele>162.12</ele>
        <time>2015-11-08T10:06:06Z</time>
      </trkpt>
      <trkpt lat="50.13324" lon="3.64018">
        <ele>162.12</ele>
        <time>2015-11-08T10:06:07Z</time>
      </trkpt>
      <trkpt lat="50.13322" lon="3.64017">
        <ele>162.12</ele>
        <time>2015-11-08T10:06:08Z</time>
      </trkpt>
      <trkpt lat="50.1332" lon="3.64015">
        <ele>162.12</ele>
        <time>2015-11-08T10:06:09Z</time>
      </trkpt>
      <trkpt lat="50.13318" lon="3.64013">
        <ele>162.12</ele>
        <time>2015-11-08T10:06:10Z</time>
      </trkpt>
      <trkpt lat="50.13317" lon="3.64013">
        <ele>162.12</ele>
        <time>2015-11-08T10:06:20Z</time>
      </trkpt>
      <trkpt lat="50.13318" lon="3.64012">
        <ele>162.12</ele>
        <time>2015-11-08T10:06:40Z</time>
      </trkpt>
      <trkpt lat="50.13315" lon="3.64013">
        <ele>162.12</ele>
        <time>2015-11-08T10:06:45Z</time>
      </trkpt>
      <trkpt lat="50.13314" lon="3.64013">
        <ele>162.12</ele>
        <time>2015-11-08T10:06:46Z</time>
      </trkpt>
      <trkpt lat="50.13313" lon="3.64013">
        <ele>162.12</ele>
        <time>2015-11-08T10:06:47Z</time>
      </trkpt>
      <trkpt lat="50.13311" lon="3.64012">
        <ele>162.12</ele>
        <time>2015-11-08T10:06:48Z</time>
      </trkpt>
      <trkpt lat="50.1331" lon="3.64012">
        <ele>162.12</ele>
        <time>2015-11-08T10:06:49Z</time>
      </trkpt>
      <trkpt lat="50.13309" lon="3.64012">
        <ele>162.12</ele>
        <time>2015-11-08T10:06:50Z</time>
      </trkpt>
      <trkpt lat="50.13307" lon="3.64011">
        <ele>162.12</ele>
        <time>2015-11-08T10:06:51Z</time>
      </trkpt>
      <trkpt lat="50.13306" lon="3.64011">
        <ele>160.68</ele>
        <time>2015-11-08T10:06:52Z</time>
      </trkpt>
      <trkpt lat="50.13304" lon="3.6401">
        <ele>160.68</ele>
        <time>2015-11-08T10:06:53Z</time>
      </trkpt>
      <trkpt lat="50.13265" lon="3.63998">
        <ele>158.75</ele>
        <time>2015-11-08T10:07:04Z</time>
      </trkpt>
      <trkpt lat="50.13198" lon="3.63981">
        <ele>155.39</ele>
        <time>2015-11-08T10:07:19Z</time>
      </trkpt>
      <trkpt lat="50.13132" lon="3.63968">
        <ele>153.95</ele>
        <time>2015-11-08T10:07:36Z</time>
      </trkpt>
      <trkpt lat="50.13088" lon="3.6396">
        <ele>153.95</ele>
        <time>2015-11-08T10:07:50Z</time>
      </trkpt>
      <trkpt lat="50.13036" lon="3.63949">
        <ele>152.99</ele>
        <time>2015-11-08T10:08:04Z</time>
      </trkpt>
      <trkpt lat="50.12998" lon="3.63941">
        <ele>152.51</ele>
        <time>2015-11-08T10:08:15Z</time>
      </trkpt>
      <trkpt lat="50.12965" lon="3.6393">
        <ele>152.51</ele>
        <time>2015-11-08T10:08:27Z</time>
      </trkpt>
      <trkpt lat="50.12938" lon="3.63919">
        <ele>153.95</ele>
        <time>2015-11-08T10:08:38Z</time>
      </trkpt>
      <trkpt lat="50.12899" lon="3.63903">
        <ele>154.91</ele>
        <time>2015-11-08T10:08:54Z</time>
      </trkpt>
      <trkpt lat="50.12864" lon="3.63893">
        <ele>155.87</ele>
        <time>2015-11-08T10:09:10Z</time>
      </trkpt>
      <trkpt lat="50.12832" lon="3.63886">
        <ele>156.35</ele>
        <time>2015-11-08T10:09:25Z</time>
      </trkpt>
      <trkpt lat="50.12804" lon="3.63877">
        <ele>156.83</ele>
        <time>2015-11-08T10:09:39Z</time>
      </trkpt>
      <trkpt lat="50.1277" lon="3.63863">
        <ele>156.83</ele>
        <time>2015-11-08T10:09:51Z</time>
      </trkpt>
      <trkpt lat="50.12738" lon="3.63852">
        <ele>156.83</ele>
        <time>2015-11-08T10:10:03Z</time>
      </trkpt>
      <trkpt lat="50.12697" lon="3.63835">
        <ele>156.83</ele>
        <time>2015-11-08T10:10:18Z</time>
      </trkpt>
      <trkpt lat="50.12658" lon="3.63815">
        <ele>156.83</ele>
        <time>2015-11-08T10:10:33Z</time>
      </trkpt>
      <trkpt lat="50.12646" lon="3.63807">
        <ele>155.39</ele>
        <time>2015-11-08T10:10:37Z</time>
      </trkpt>
      <trkpt lat="50.1264" lon="3.63802">
        <ele>155.39</ele>
        <time>2015-11-08T10:10:39Z</time>
      </trkpt>
      <trkpt lat="50.12592" lon="3.63761">
        <ele>154.43</ele>
        <time>2015-11-08T10:10:54Z</time>
      </trkpt>
      <trkpt lat="50.12557" lon="3.63728">
        <ele>153.95</ele>
        <time>2015-11-08T10:11:10Z</time>
      </trkpt>
      <trkpt lat="50.12529" lon="3.63701">
        <ele>153.95</ele>
        <time>2015-11-08T10:11:24Z</time>
      </trkpt>
      <trkpt lat="50.12502" lon="3.63676">
        <ele>153.95</ele>
        <time>2015-11-08T10:11:35Z</time>
      </trkpt>
      <trkpt lat="50.12466" lon="3.63643">
        <ele>153.47</ele>
        <time>2015-11-08T10:11:48Z</time>
      </trkpt>
      <trkpt lat="50.12429" lon="3.63611">
        <ele>153.47</ele>
        <time>2015-11-08T10:12:04Z</time>
      </trkpt>
      <trkpt lat="50.124" lon="3.63586">
        <ele>153.47</ele>
        <time>2015-11-08T10:12:16Z</time>
      </trkpt>
      <trkpt lat="50.12357" lon="3.63547">
        <ele>152.51</ele>
        <time>2015-11-08T10:12:33Z</time>
      </trkpt>
      <trkpt lat="50.12321" lon="3.63516">
        <ele>152.03</ele>
        <time>2015-11-08T10:12:47Z</time>
      </trkpt>
      <trkpt lat="50.12286" lon="3.63485">
        <ele>151.54</ele>
        <time>2015-11-08T10:13:01Z</time>
      </trkpt>
      <trkpt lat="50.1226" lon="3.63465">
        <ele>151.54</ele>
        <time>2015-11-08T10:13:12Z</time>
      </trkpt>
      <trkpt lat="50.12239" lon="3.63444">
        <ele>151.54</ele>
        <time>2015-11-08T10:13:22Z</time>
      </trkpt>
      <trkpt lat="50.12226" lon="3.63424">
        <ele>152.51</ele>
        <time>2015-11-08T10:13:31Z</time>
      </trkpt>
      <trkpt lat="50.12207" lon="3.63395">
        <ele>154.43</ele>
        <time>2015-11-08T10:13:44Z</time>
      </trkpt>
      <trkpt lat="50.1218" lon="3.63358">
        <ele>155.39</ele>
        <time>2015-11-08T10:14:01Z</time>
      </trkpt>
      <trkpt lat="50.12168" lon="3.63333">
        <ele>156.83</ele>
        <time>2015-11-08T10:14:14Z</time>
      </trkpt>
      <trkpt lat="50.12165" lon="3.63323">
        <ele>156.83</ele>
        <time>2015-11-08T10:14:18Z</time>
      </trkpt>
      <trkpt lat="50.12151" lon="3.63293">
        <ele>157.31</ele>
        <time>2015-11-08T10:14:31Z</time>
      </trkpt>
      <trkpt lat="50.12129" lon="3.63251">
        <ele>158.75</ele>
        <time>2015-11-08T10:14:47Z</time>
      </trkpt>
      <trkpt lat="50.12108" lon="3.63212">
        <ele>159.24</ele>
        <time>2015-11-08T10:15:00Z</time>
      </trkpt>
      <trkpt lat="50.12082" lon="3.6316">
        <ele>159.24</ele>
        <time>2015-11-08T10:15:15Z</time>
      </trkpt>
      <trkpt lat="50.12064" lon="3.63123">
        <ele>159.24</ele>
        <time>2015-11-08T10:15:26Z</time>
      </trkpt>
      <trkpt lat="50.12045" lon="3.63088">
        <ele>159.24</ele>
        <time>2015-11-08T10:15:39Z</time>
      </trkpt>
      <trkpt lat="50.12029" lon="3.63054">
        <ele>157.79</ele>
        <time>2015-11-08T10:15:48Z</time>
      </trkpt>
      <trkpt lat="50.12008" lon="3.63012">
        <ele>157.31</ele>
        <time>2015-11-08T10:15:57Z</time>
      </trkpt>
      <trkpt lat="50.12005" lon="3.63006">
        <ele>157.31</ele>
        <time>2015-11-08T10:15:58Z</time>
      </trkpt>
      <trkpt lat="50.11975" lon="3.62947">
        <ele>155.87</ele>
        <time>2015-11-08T10:16:10Z</time>
      </trkpt>
      <trkpt lat="50.11937" lon="3.62875">
        <ele>155.39</ele>
        <time>2015-11-08T10:16:25Z</time>
      </trkpt>
      <trkpt lat="50.11935" lon="3.6287">
        <ele>154.91</ele>
        <time>2015-11-08T10:16:26Z</time>
      </trkpt>
      <trkpt lat="50.11929" lon="3.6286">
        <ele>154.91</ele>
        <time>2015-11-08T10:16:28Z</time>
      </trkpt>
      <trkpt lat="50.11926" lon="3.62856">
        <ele>154.91</ele>
        <time>2015-11-08T10:16:29Z</time>
      </trkpt>
      <trkpt lat="50.11924" lon="3.62851">
        <ele>154.91</ele>
        <time>2015-11-08T10:16:30Z</time>
      </trkpt>
      <trkpt lat="50.11922" lon="3.62846">
        <ele>154.91</ele>
        <time>2015-11-08T10:16:31Z</time>
      </trkpt>
      <trkpt lat="50.1192" lon="3.62841">
        <ele>154.91</ele>
        <time>2015-11-08T10:16:32Z</time>
      </trkpt>
      <trkpt lat="50.11895" lon="3.62791">
        <ele>154.91</ele>
        <time>2015-11-08T10:16:46Z</time>
      </trkpt>
      <trkpt lat="50.11873" lon="3.62748">
        <ele>153.95</ele>
        <time>2015-11-08T10:16:57Z</time>
      </trkpt>
      <trkpt lat="50.1187" lon="3.62742">
        <ele>153.95</ele>
        <time>2015-11-08T10:16:58Z</time>
      </trkpt>
      <trkpt lat="50.11838" lon="3.62677">
        <ele>154.43</ele>
        <time>2015-11-08T10:17:13Z</time>
      </trkpt>
      <trkpt lat="50.11808" lon="3.6262">
        <ele>154.43</ele>
        <time>2015-11-08T10:17:29Z</time>
      </trkpt>
      <trkpt lat="50.1179" lon="3.62573">
        <ele>153.95</ele>
        <time>2015-11-08T10:17:43Z</time>
      </trkpt>
      <trkpt lat="50.11792" lon="3.62568">
        <ele>153.95</ele>
        <time>2015-11-08T10:17:54Z</time>
      </trkpt>
      <trkpt lat="50.11794" lon="3.62565">
        <ele>153.95</ele>
        <time>2015-11-08T10:18:07Z</time>
      </trkpt>
      <trkpt lat="50.11794" lon="3.62564">
        <ele>153.95</ele>
        <time>2015-11-08T10:18:08Z</time>
      </trkpt>
      <trkpt lat="50.11795" lon="3.62562">
        <ele>153.47</ele>
        <time>2015-11-08T10:18:09Z</time>
      </trkpt>
      <trkpt lat="50.11809" lon="3.62529">
        <ele>151.54</ele>
        <time>2015-11-08T10:18:21Z</time>
      </trkpt>
      <trkpt lat="50.11819" lon="3.62513">
        <ele>151.06</ele>
        <time>2015-11-08T10:18:30Z</time>
      </trkpt>
      <trkpt lat="50.11822" lon="3.62513">
        <ele>150.58</ele>
        <time>2015-11-08T10:18:33Z</time>
      </trkpt>
      <trkpt lat="50.11823" lon="3.62514">
        <ele>150.58</ele>
        <time>2015-11-08T10:18:34Z</time>
      </trkpt>
      <trkpt lat="50.11824" lon="3.62518">
        <ele>150.1</ele>
        <time>2015-11-08T10:18:50Z</time>
      </trkpt>
      <trkpt lat="50.11819" lon="3.62513">
        <ele>152.03</ele>
        <time>2015-11-08T10:19:09Z</time>
      </trkpt>
      <trkpt lat="50.11821" lon="3.62515">
        <ele>152.03</ele>
        <time>2015-11-08T10:19:25Z</time>
      </trkpt>
      <trkpt lat="50.11825" lon="3.62518">
        <ele>152.03</ele>
        <time>2015-11-08T10:19:37Z</time>
      </trkpt>
      <trkpt lat="50.11825" lon="3.62517">
        <ele>152.03</ele>
        <time>2015-11-08T10:19:52Z</time>
      </trkpt>
      <trkpt lat="50.11824" lon="3.62518">
        <ele>152.03</ele>
        <time>2015-11-08T10:19:59Z</time>
      </trkpt>
      <trkpt lat="50.11825" lon="3.62519">
        <ele>152.03</ele>
        <time>2015-11-08T10:20:00Z</time>
      </trkpt>
      <trkpt lat="50.11826" lon="3.62518">
        <ele>152.03</ele>
        <time>2015-11-08T10:20:03Z</time>
      </trkpt>
      <trkpt lat="50.11829" lon="3.62513">
        <ele>152.03</ele>
        <time>2015-11-08T10:20:21Z</time>
      </trkpt>
      <trkpt lat="50.11837" lon="3.62512">
        <ele>152.03</ele>
        <time>2015-11-08T10:20:46Z</time>
      </trkpt>
      <trkpt lat="50.11827" lon="3.62518">
        <ele>152.03</ele>
        <time>2015-11-08T10:21:04Z</time>
      </trkpt>
      <trkpt lat="50.11822" lon="3.62517">
        <ele>152.51</ele>
        <time>2015-11-08T10:21:27Z</time>
      </trkpt>
      <trkpt lat="50.11824" lon="3.62515">
        <ele>152.51</ele>
        <time>2015-11-08T10:21:39Z</time>
      </trkpt>
      <trkpt lat="50.11824" lon="3.62517">
        <ele>152.99</ele>
        <time>2015-11-08T10:21:57Z</time>
      </trkpt>
      <trkpt lat="50.11824" lon="3.62515">
        <ele>152.99</ele>
        <time>2015-11-08T10:22:25Z</time>
      </trkpt>
      <trkpt lat="50.11825" lon="3.62519">
        <ele>152.99</ele>
        <time>2015-11-08T10:22:45Z</time>
      </trkpt>
      <trkpt lat="50.11828" lon="3.62514">
        <ele>152.99</ele>
        <time>2015-11-08T10:23:11Z</time>
      </trkpt>
      <trkpt lat="50.11825" lon="3.62522">
        <ele>152.99</ele>
        <time>2015-11-08T10:23:34Z</time>
      </trkpt>
      <trkpt lat="50.11823" lon="3.62518">
        <ele>153.47</ele>
        <time>2015-11-08T10:23:54Z</time>
      </trkpt>
      <trkpt lat="50.11823" lon="3.62518">
        <ele>153.47</ele>
        <time>2015-11-08T10:24:19Z</time>
      </trkpt>
      <trkpt lat="50.11825" lon="3.62517">
        <ele>153.47</ele>
        <time>2015-11-08T10:24:24Z</time>
      </trkpt>
      <trkpt lat="50.11823" lon="3.6252">
        <ele>153.47</ele>
        <time>2015-11-08T10:24:49Z</time>
      </trkpt>
      <trkpt lat="50.11824" lon="3.62518">
        <ele>153.95</ele>
        <time>2015-11-08T10:25:13Z</time>
      </trkpt>
      <trkpt lat="50.11824" lon="3.62518">
        <ele>153.95</ele>
        <time>2015-11-08T10:25:27Z</time>
      </trkpt>
      <trkpt lat="50.11823" lon="3.62519">
        <ele>153.47</ele>
        <time>2015-11-08T10:25:42Z</time>
      </trkpt>
      <trkpt lat="50.11822" lon="3.62515">
        <ele>153.47</ele>
        <time>2015-11-08T10:25:55Z</time>
      </trkpt>
      <trkpt lat="50.11821" lon="3.62515">
        <ele>152.51</ele>
        <time>2015-11-08T10:25:56Z</time>
      </trkpt>
      <trkpt lat="50.1182" lon="3.62514">
        <ele>152.51</ele>
        <time>2015-11-08T10:25:57Z</time>
      </trkpt>
      <trkpt lat="50.11816" lon="3.6252">
        <ele>152.51</ele>
        <time>2015-11-08T10:26:11Z</time>
      </trkpt>
      <trkpt lat="50.11815" lon="3.62522">
        <ele>152.51</ele>
        <time>2015-11-08T10:26:12Z</time>
      </trkpt>
      <trkpt lat="50.11815" lon="3.62523">
        <ele>152.51</ele>
        <time>2015-11-08T10:26:13Z</time>
      </trkpt>
      <trkpt lat="50.11814" lon="3.62525">
        <ele>152.51</ele>
        <time>2015-11-08T10:26:14Z</time>
      </trkpt>
      <trkpt lat="50.11814" lon="3.62526">
        <ele>153.47</ele>
        <time>2015-11-08T10:26:24Z</time>
      </trkpt>
      <trkpt lat="50.11812" lon="3.6253">
        <ele>153.47</ele>
        <time>2015-11-08T10:26:37Z</time>
      </trkpt>
      <trkpt lat="50.11811" lon="3.62531">
        <ele>153.47</ele>
        <time>2015-11-08T10:26:38Z</time>
      </trkpt>
      <trkpt lat="50.1181" lon="3.62532">
        <ele>153.47</ele>
        <time>2015-11-08T10:26:39Z</time>
      </trkpt>
      <trkpt lat="50.1181" lon="3.62534">
        <ele>153.47</ele>
        <time>2015-11-08T10:26:40Z</time>
      </trkpt>
      <trkpt lat="50.11809" lon="3.62535">
        <ele>153.47</ele>
        <time>2015-11-08T10:26:41Z</time>
      </trkpt>
      <trkpt lat="50.11808" lon="3.62537">
        <ele>153.47</ele>
        <time>2015-11-08T10:26:42Z</time>
      </trkpt>
      <trkpt lat="50.11808" lon="3.62539">
        <ele>153.47</ele>
        <time>2015-11-08T10:26:43Z</time>
      </trkpt>
      <trkpt lat="50.11807" lon="3.6254">
        <ele>153.95</ele>
        <time>2015-11-08T10:26:44Z</time>
      </trkpt>
      <trkpt lat="50.11805" lon="3.62539">
        <ele>153.95</ele>
        <time>2015-11-08T10:26:58Z</time>
      </trkpt>
      <trkpt lat="50.11798" lon="3.62553">
        <ele>154.91</ele>
        <time>2015-11-08T10:27:09Z</time>
      </trkpt>
      <trkpt lat="50.11798" lon="3.62549">
        <ele>155.39</ele>
        <time>2015-11-08T10:27:26Z</time>
      </trkpt>
      <trkpt lat="50.11798" lon="3.62549">
        <ele>155.87</ele>
        <time>2015-11-08T10:27:43Z</time>
      </trkpt>
      <trkpt lat="50.11797" lon="3.62555">
        <ele>155.87</ele>
        <time>2015-11-08T10:27:58Z</time>
      </trkpt>
      <trkpt lat="50.11787" lon="3.62567">
        <ele>155.87</ele>
        <time>2015-11-08T10:28:17Z</time>
      </trkpt>
      <trkpt lat="50.11784" lon="3.62567">
        <ele>156.35</ele>
        <time>2015-11-08T10:28:21Z</time>
      </trkpt>
      <trkpt lat="50.11782" lon="3.62566">
        <ele>156.35</ele>
        <time>2015-11-08T10:28:22Z</time>
      </trkpt>
      <trkpt lat="50.11781" lon="3.62565">
        <ele>156.35</ele>
        <time>2015-11-08T10:28:23Z</time>
      </trkpt>
      <trkpt lat="50.11778" lon="3.62561">
        <ele>156.35</ele>
        <time>2015-11-08T10:28:25Z</time>
      </trkpt>
      <trkpt lat="50.11777" lon="3.62558">
        <ele>156.35</ele>
        <time>2015-11-08T10:28:26Z</time>
      </trkpt>
      <trkpt lat="50.11765" lon="3.62532">
        <ele>154.91</ele>
        <time>2015-11-08T10:28:34Z</time>
      </trkpt>
      <trkpt lat="50.11748" lon="3.62501">
        <ele>153.47</ele>
        <time>2015-11-08T10:28:45Z</time>
      </trkpt>
      <trkpt lat="50.11715" lon="3.62479">
        <ele>152.99</ele>
        <time>2015-11-08T10:28:57Z</time>
      </trkpt>
      <trkpt lat="50.1166" lon="3.62474">
        <ele>151.54</ele>
        <time>2015-11-08T10:29:11Z</time>
      </trkpt>
      <trkpt lat="50.1159" lon="3.62473">
        <ele>148.66</ele>
        <time>2015-11-08T10:29:24Z</time>
      </trkpt>
      <trkpt lat="50.1156" lon="3.62473">
        <ele>148.18</ele>
        <time>2015-11-08T10:29:33Z</time>
      </trkpt>
      <trkpt lat="50.11557" lon="3.62472">
        <ele>148.18</ele>
        <time>2015-11-08T10:29:56Z</time>
      </trkpt>
      <trkpt lat="50.11555" lon="3.62473">
        <ele>148.18</ele>
        <time>2015-11-08T10:30:02Z</time>
      </trkpt>
      <trkpt lat="50.11553" lon="3.62475">
        <ele>148.18</ele>
        <time>2015-11-08T10:30:03Z</time>
      </trkpt>
      <trkpt lat="50.11552" lon="3.62478">
        <ele>148.18</ele>
        <time>2015-11-08T10:30:04Z</time>
      </trkpt>
      <trkpt lat="50.11551" lon="3.62514">
        <ele>148.18</ele>
        <time>2015-11-08T10:30:14Z</time>
      </trkpt>
      <trkpt lat="50.1155" lon="3.62516">
        <ele>148.18</ele>
        <time>2015-11-08T10:30:15Z</time>
      </trkpt>
      <trkpt lat="50.11548" lon="3.62516">
        <ele>148.66</ele>
        <time>2015-11-08T10:30:16Z</time>
      </trkpt>
      <trkpt lat="50.11546" lon="3.62516">
        <ele>148.18</ele>
        <time>2015-11-08T10:30:17Z</time>
      </trkpt>
      <trkpt lat="50.11544" lon="3.62516">
        <ele>148.66</ele>
        <time>2015-11-08T10:30:18Z</time>
      </trkpt>
      <trkpt lat="50.11518" lon="3.62522">
        <ele>146.74</ele>
        <time>2015-11-08T10:30:31Z</time>
      </trkpt>
      <trkpt lat="50.11487" lon="3.62527">
        <ele>146.26</ele>
        <time>2015-11-08T10:30:42Z</time>
      </trkpt>
      <trkpt lat="50.11456" lon="3.62538">
        <ele>144.82</ele>
        <time>2015-11-08T10:30:53Z</time>
      </trkpt>
      <trkpt lat="50.11424" lon="3.62551">
        <ele>143.85</ele>
        <time>2015-11-08T10:31:07Z</time>
      </trkpt>
      <trkpt lat="50.11405" lon="3.6255">
        <ele>143.37</ele>
        <time>2015-11-08T10:31:19Z</time>
      </trkpt>
      <trkpt lat="50.11399" lon="3.62549">
        <ele>143.85</ele>
        <time>2015-11-08T10:31:37Z</time>
      </trkpt>
      <trkpt lat="50.11397" lon="3.6255">
        <ele>143.85</ele>
        <time>2015-11-08T10:32:00Z</time>
      </trkpt>
      <trkpt lat="50.11395" lon="3.6255">
        <ele>143.85</ele>
        <time>2015-11-08T10:32:04Z</time>
      </trkpt>
      <trkpt lat="50.11394" lon="3.62552">
        <ele>143.37</ele>
        <time>2015-11-08T10:32:16Z</time>
      </trkpt>
      <trkpt lat="50.11389" lon="3.62551">
        <ele>143.85</ele>
        <time>2015-11-08T10:32:30Z</time>
      </trkpt>
      <trkpt lat="50.11391" lon="3.62553">
        <ele>143.85</ele>
        <time>2015-11-08T10:32:47Z</time>
      </trkpt>
      <trkpt lat="50.11389" lon="3.62559">
        <ele>143.85</ele>
        <time>2015-11-08T10:33:03Z</time>
      </trkpt>
      <trkpt lat="50.11394" lon="3.62554">
        <ele>143.85</ele>
        <time>2015-11-08T10:33:15Z</time>
      </trkpt>
      <trkpt lat="50.1139" lon="3.62552">
        <ele>143.85</ele>
        <time>2015-11-08T10:33:26Z</time>
      </trkpt>
      <trkpt lat="50.11389" lon="3.62556">
        <ele>143.85</ele>
        <time>2015-11-08T10:33:32Z</time>
      </trkpt>
      <trkpt lat="50.1139" lon="3.62555">
        <ele>144.34</ele>
        <time>2015-11-08T10:33:44Z</time>
      </trkpt>
      <trkpt lat="50.11391" lon="3.62553">
        <ele>144.34</ele>
        <time>2015-11-08T10:34:06Z</time>
      </trkpt>
      <trkpt lat="50.11386" lon="3.62558">
        <ele>144.34</ele>
        <time>2015-11-08T10:34:30Z</time>
      </trkpt>
      <trkpt lat="50.11385" lon="3.62564">
        <ele>145.78</ele>
        <time>2015-11-08T10:34:43Z</time>
      </trkpt>
      <trkpt lat="50.1139" lon="3.6256">
        <ele>146.74</ele>
        <time>2015-11-08T10:35:06Z</time>
      </trkpt>
      <trkpt lat="50.11394" lon="3.62549">
        <ele>145.78</ele>
        <time>2015-11-08T10:35:25Z</time>
      </trkpt>
      <trkpt lat="50.11392" lon="3.62548">
        <ele>145.78</ele>
        <time>2015-11-08T10:35:40Z</time>
      </trkpt>
      <trkpt lat="50.11391" lon="3.62551">
        <ele>145.78</ele>
        <time>2015-11-08T10:36:00Z</time>
      </trkpt>
      <trkpt lat="50.11391" lon="3.62556">
        <ele>145.78</ele>
        <time>2015-11-08T10:36:16Z</time>
      </trkpt>
      <trkpt lat="50.11395" lon="3.62551">
        <ele>146.26</ele>
        <time>2015-11-08T10:36:31Z</time>
      </trkpt>
      <trkpt lat="50.11399" lon="3.62545">
        <ele>146.26</ele>
        <time>2015-11-08T10:36:49Z</time>
      </trkpt>
      <trkpt lat="50.11401" lon="3.62551">
        <ele>146.26</ele>
        <time>2015-11-08T10:37:04Z</time>
      </trkpt>
      <trkpt lat="50.11405" lon="3.6255">
        <ele>146.26</ele>
        <time>2015-11-08T10:37:20Z</time>
      </trkpt>
      <trkpt lat="50.1141" lon="3.62549">
        <ele>146.26</ele>
        <time>2015-11-08T10:37:30Z</time>
      </trkpt>
      <trkpt lat="50.11419" lon="3.62545">
        <ele>146.74</ele>
        <time>2015-11-08T10:37:44Z</time>
      </trkpt>
      <trkpt lat="50.11424" lon="3.62537">
        <ele>146.74</ele>
        <time>2015-11-08T10:37:57Z</time>
      </trkpt>
      <trkpt lat="50.11424" lon="3.62535">
        <ele>146.74</ele>
        <time>2015-11-08T10:37:58Z</time>
      </trkpt>
      <trkpt lat="50.11425" lon="3.62533">
        <ele>146.74</ele>
        <time>2015-11-08T10:37:59Z</time>
      </trkpt>
      <trkpt lat="50.11427" lon="3.62531">
        <ele>146.74</ele>
        <time>2015-11-08T10:38:00Z</time>
      </trkpt>
      <trkpt lat="50.11428" lon="3.62529">
        <ele>146.74</ele>
        <time>2015-11-08T10:38:01Z</time>
      </trkpt>
      <trkpt lat="50.11428" lon="3.62527">
        <ele>146.74</ele>
        <time>2015-11-08T10:38:02Z</time>
      </trkpt>
      <trkpt lat="50.11429" lon="3.62524">
        <ele>146.74</ele>
        <time>2015-11-08T10:38:03Z</time>
      </trkpt>
      <trkpt lat="50.1144" lon="3.62507">
        <ele>146.74</ele>
        <time>2015-11-08T10:38:16Z</time>
      </trkpt>
      <trkpt lat="50.11449" lon="3.62491">
        <ele>148.18</ele>
        <time>2015-11-08T10:38:30Z</time>
      </trkpt>
      <trkpt lat="50.11453" lon="3.62477">
        <ele>148.18</ele>
        <time>2015-11-08T10:38:47Z</time>
      </trkpt>
      <trkpt lat="50.11458" lon="3.62469">
        <ele>148.18</ele>
        <time>2015-11-08T10:39:03Z</time>
      </trkpt>
      <trkpt lat="50.11465" lon="3.62459">
        <ele>149.14</ele>
        <time>2015-11-08T10:39:19Z</time>
      </trkpt>
      <trkpt lat="50.11475" lon="3.62445">
        <ele>149.62</ele>
        <time>2015-11-08T10:39:36Z</time>
      </trkpt>
      <trkpt lat="50.11483" lon="3.62432">
        <ele>151.06</ele>
        <time>2015-11-08T10:39:52Z</time>
      </trkpt>
      <trkpt lat="50.11489" lon="3.62419">
        <ele>152.03</ele>
        <time>2015-11-08T10:40:05Z</time>
      </trkpt>
      <trkpt lat="50.11492" lon="3.62415">
        <ele>152.03</ele>
        <time>2015-11-08T10:40:09Z</time>
      </trkpt>
      <trkpt lat="50.11493" lon="3.62412">
        <ele>152.03</ele>
        <time>2015-11-08T10:40:11Z</time>
      </trkpt>
      <trkpt lat="50.11495" lon="3.6241">
        <ele>152.51</ele>
        <time>2015-11-08T10:40:12Z</time>
      </trkpt>
      <trkpt lat="50.11496" lon="3.62408">
        <ele>152.51</ele>
        <time>2015-11-08T10:40:13Z</time>
      </trkpt>
      <trkpt lat="50.11505" lon="3.62393">
        <ele>153.95</ele>
        <time>2015-11-08T10:40:25Z</time>
      </trkpt>
      <trkpt lat="50.11512" lon="3.62386">
        <ele>154.91</ele>
        <time>2015-11-08T10:40:42Z</time>
      </trkpt>
      <trkpt lat="50.11513" lon="3.62368">
        <ele>154.91</ele>
        <time>2015-11-08T10:40:55Z</time>
      </trkpt>
      <trkpt lat="50.11515" lon="3.62364">
        <ele>154.91</ele>
        <time>2015-11-08T10:40:58Z</time>
      </trkpt>
      <trkpt lat="50.11515" lon="3.62362">
        <ele>154.91</ele>
        <time>2015-11-08T10:40:59Z</time>
      </trkpt>
      <trkpt lat="50.11514" lon="3.6236">
        <ele>154.91</ele>
        <time>2015-11-08T10:41:00Z</time>
      </trkpt>
      <trkpt lat="50.1151" lon="3.62352">
        <ele>155.87</ele>
        <time>2015-11-08T10:41:15Z</time>
      </trkpt>
      <trkpt lat="50.11504" lon="3.62336">
        <ele>155.87</ele>
        <time>2015-11-08T10:41:29Z</time>
      </trkpt>
      <trkpt lat="50.11497" lon="3.62325">
        <ele>155.87</ele>
        <time>2015-11-08T10:41:41Z</time>
      </trkpt>
      <trkpt lat="50.11489" lon="3.62322">
        <ele>156.35</ele>
        <time>2015-11-08T10:41:53Z</time>
      </trkpt>
      <trkpt lat="50.11486" lon="3.62318">
        <ele>156.35</ele>
        <time>2015-11-08T10:42:11Z</time>
      </trkpt>
      <trkpt lat="50.11485" lon="3.62317">
        <ele>156.35</ele>
        <time>2015-11-08T10:42:13Z</time>
      </trkpt>
      <trkpt lat="50.11484" lon="3.62316">
        <ele>156.35</ele>
        <time>2015-11-08T10:42:14Z</time>
      </trkpt>
      <trkpt lat="50.11483" lon="3.62314">
        <ele>156.35</ele>
        <time>2015-11-08T10:42:15Z</time>
      </trkpt>
      <trkpt lat="50.11481" lon="3.62313">
        <ele>156.35</ele>
        <time>2015-11-08T10:42:16Z</time>
      </trkpt>
      <trkpt lat="50.11478" lon="3.62311">
        <ele>156.35</ele>
        <time>2015-11-08T10:42:20Z</time>
      </trkpt>
      <trkpt lat="50.11477" lon="3.6231">
        <ele>156.35</ele>
        <time>2015-11-08T10:42:21Z</time>
      </trkpt>
      <trkpt lat="50.11475" lon="3.62305">
        <ele>156.83</ele>
        <time>2015-11-08T10:42:36Z</time>
      </trkpt>
      <trkpt lat="50.11471" lon="3.62299">
        <ele>156.83</ele>
        <time>2015-11-08T10:42:53Z</time>
      </trkpt>
      <trkpt lat="50.11474" lon="3.62305">
        <ele>156.83</ele>
        <time>2015-11-08T10:43:08Z</time>
      </trkpt>
      <trkpt lat="50.11475" lon="3.62306">
        <ele>156.83</ele>
        <time>2015-11-08T10:43:09Z</time>
      </trkpt>
      <trkpt lat="50.11483" lon="3.62317">
        <ele>156.83</ele>
        <time>2015-11-08T10:43:22Z</time>
      </trkpt>
      <trkpt lat="50.11487" lon="3.62319">
        <ele>156.83</ele>
        <time>2015-11-08T10:43:34Z</time>
      </trkpt>
      <trkpt lat="50.11496" lon="3.62323">
        <ele>155.87</ele>
        <time>2015-11-08T10:43:51Z</time>
      </trkpt>
      <trkpt lat="50.11499" lon="3.62324">
        <ele>155.87</ele>
        <time>2015-11-08T10:44:08Z</time>
      </trkpt>
      <trkpt lat="50.11496" lon="3.62328">
        <ele>155.87</ele>
        <time>2015-11-08T10:44:20Z</time>
      </trkpt>
      <trkpt lat="50.11495" lon="3.62329">
        <ele>155.39</ele>
        <time>2015-11-08T10:44:35Z</time>
      </trkpt>
      <trkpt lat="50.11494" lon="3.62334">
        <ele>154.91</ele>
        <time>2015-11-08T10:44:49Z</time>
      </trkpt>
      <trkpt lat="50.11493" lon="3.62334">
        <ele>154.43</ele>
        <time>2015-11-08T10:45:05Z</time>
      </trkpt>
      <trkpt lat="50.11491" lon="3.62336">
        <ele>154.43</ele>
        <time>2015-11-08T10:45:21Z</time>
      </trkpt>
      <trkpt lat="50.11493" lon="3.62335">
        <ele>153.95</ele>
        <time>2015-11-08T10:45:42Z</time>
      </trkpt>
      <trkpt lat="50.1149" lon="3.62333">
        <ele>153.95</ele>
        <time>2015-11-08T10:45:55Z</time>
      </trkpt>
      <trkpt lat="50.11493" lon="3.62336">
        <ele>153.95</ele>
        <time>2015-11-08T10:46:11Z</time>
      </trkpt>
      <trkpt lat="50.11494" lon="3.62336">
        <ele>153.47</ele>
        <time>2015-11-08T10:46:32Z</time>
      </trkpt>
      <trkpt lat="50.11493" lon="3.62335">
        <ele>153.47</ele>
        <time>2015-11-08T10:46:52Z</time>
      </trkpt>
      <trkpt lat="50.11491" lon="3.62338">
        <ele>153.47</ele>
        <time>2015-11-08T10:47:19Z</time>
      </trkpt>
      <trkpt lat="50.1149" lon="3.62342">
        <ele>153.47</ele>
        <time>2015-11-08T10:47:35Z</time>
      </trkpt>
      <trkpt lat="50.11491" lon="3.62339">
        <ele>153.47</ele>
        <time>2015-11-08T10:47:51Z</time>
      </trkpt>
      <trkpt lat="50.11488" lon="3.62338">
        <ele>153.47</ele>
        <time>2015-11-08T10:48:04Z</time>
      </trkpt>
      <trkpt lat="50.11489" lon="3.62334">
        <ele>154.43</ele>
        <time>2015-11-08T10:48:23Z</time>
      </trkpt>
      <trkpt lat="50.1149" lon="3.62334">
        <ele>154.43</ele>
        <time>2015-11-08T10:48:41Z</time>
      </trkpt>
      <trkpt lat="50.11489" lon="3.62334">
        <ele>154.43</ele>
        <time>2015-11-08T10:48:57Z</time>
      </trkpt>
      <trkpt lat="50.11491" lon="3.62335">
        <ele>154.43</ele>
        <time>2015-11-08T10:49:11Z</time>
      </trkpt>
      <trkpt lat="50.11494" lon="3.6233">
        <ele>153.95</ele>
        <time>2015-11-08T10:49:16Z</time>
      </trkpt>
      <trkpt lat="50.11503" lon="3.62313">
        <ele>154.43</ele>
        <time>2015-11-08T10:49:26Z</time>
      </trkpt>
      <trkpt lat="50.11499" lon="3.62318">
        <ele>154.43</ele>
        <time>2015-11-08T10:49:38Z</time>
      </trkpt>
      <trkpt lat="50.11497" lon="3.62324">
        <ele>154.43</ele>
        <time>2015-11-08T10:49:50Z</time>
      </trkpt>
      <trkpt lat="50.11496" lon="3.62326">
        <ele>154.43</ele>
        <time>2015-11-08T10:50:05Z</time>
      </trkpt>
      <trkpt lat="50.11493" lon="3.62327">
        <ele>154.91</ele>
        <time>2015-11-08T10:50:23Z</time>
      </trkpt>
      <trkpt lat="50.11495" lon="3.62334">
        <ele>154.91</ele>
        <time>2015-11-08T10:50:35Z</time>
      </trkpt>
      <trkpt lat="50.11494" lon="3.62332">
        <ele>154.43</ele>
        <time>2015-11-08T10:50:55Z</time>
      </trkpt>
      <trkpt lat="50.11496" lon="3.6233">
        <ele>154.43</ele>
        <time>2015-11-08T10:51:08Z</time>
      </trkpt>
      <trkpt lat="50.11494" lon="3.62335">
        <ele>154.43</ele>
        <time>2015-11-08T10:51:24Z</time>
      </trkpt>
      <trkpt lat="50.11494" lon="3.62334">
        <ele>154.43</ele>
        <time>2015-11-08T10:51:43Z</time>
      </trkpt>
      <trkpt lat="50.11495" lon="3.62334">
        <ele>154.43</ele>
        <time>2015-11-08T10:52:01Z</time>
      </trkpt>
      <trkpt lat="50.11496" lon="3.62335">
        <ele>154.43</ele>
        <time>2015-11-08T10:52:16Z</time>
      </trkpt>
      <trkpt lat="50.11496" lon="3.62339">
        <ele>153.95</ele>
        <time>2015-11-08T10:52:33Z</time>
      </trkpt>
      <trkpt lat="50.11494" lon="3.62333">
        <ele>155.39</ele>
        <time>2015-11-08T10:52:46Z</time>
      </trkpt>
      <trkpt lat="50.11497" lon="3.62338">
        <ele>154.91</ele>
        <time>2015-11-08T10:53:14Z</time>
      </trkpt>
      <trkpt lat="50.11499" lon="3.62341">
        <ele>155.39</ele>
        <time>2015-11-08T10:53:44Z</time>
      </trkpt>
      <trkpt lat="50.11498" lon="3.62334">
        <ele>155.39</ele>
        <time>2015-11-08T10:54:16Z</time>
      </trkpt>
      <trkpt lat="50.11501" lon="3.62332">
        <ele>155.39</ele>
        <time>2015-11-08T10:54:35Z</time>
      </trkpt>
      <trkpt lat="50.11498" lon="3.62339">
        <ele>153.95</ele>
        <time>2015-11-08T10:54:42Z</time>
      </trkpt>
      <trkpt lat="50.115" lon="3.62344">
        <ele>153.95</ele>
        <time>2015-11-08T10:54:48Z</time>
      </trkpt>
      <trkpt lat="50.11507" lon="3.62348">
        <ele>153.95</ele>
        <time>2015-11-08T10:54:54Z</time>
      </trkpt>
      <trkpt lat="50.11506" lon="3.62363">
        <ele>153.47</ele>
        <time>2015-11-08T10:55:05Z</time>
      </trkpt>
      <trkpt lat="50.11508" lon="3.62365">
        <ele>153.47</ele>
        <time>2015-11-08T10:55:06Z</time>
      </trkpt>
      <trkpt lat="50.11511" lon="3.6237">
        <ele>153.47</ele>
        <time>2015-11-08T10:55:09Z</time>
      </trkpt>
      <trkpt lat="50.11512" lon="3.62372">
        <ele>153.47</ele>
        <time>2015-11-08T10:55:10Z</time>
      </trkpt>
      <trkpt lat="50.11512" lon="3.6238">
        <ele>152.51</ele>
        <time>2015-11-08T10:55:21Z</time>
      </trkpt>
      <trkpt lat="50.11512" lon="3.62379">
        <ele>152.03</ele>
        <time>2015-11-08T10:55:37Z</time>
      </trkpt>
      <trkpt lat="50.11512" lon="3.62379">
        <ele>153.47</ele>
        <time>2015-11-08T10:55:40Z</time>
      </trkpt>
      <trkpt lat="50.11511" lon="3.62379">
        <ele>153.47</ele>
        <time>2015-11-08T10:55:57Z</time>
      </trkpt>
      <trkpt lat="50.1151" lon="3.6238">
        <ele>153.47</ele>
        <time>2015-11-08T10:56:14Z</time>
      </trkpt>
      <trkpt lat="50.11511" lon="3.62376">
        <ele>153.47</ele>
        <time>2015-11-08T10:56:33Z</time>
      </trkpt>
      <trkpt lat="50.11514" lon="3.6237">
        <ele>153.47</ele>
        <time>2015-11-08T10:56:40Z</time>
      </trkpt>
      <trkpt lat="50.11521" lon="3.62369">
        <ele>153.47</ele>
        <time>2015-11-08T10:56:53Z</time>
      </trkpt>
      <trkpt lat="50.11524" lon="3.62371">
        <ele>153.47</ele>
        <time>2015-11-08T10:57:09Z</time>
      </trkpt>
      <trkpt lat="50.11525" lon="3.62372">
        <ele>153.47</ele>
        <time>2015-11-08T10:57:10Z</time>
      </trkpt>
      <trkpt lat="50.11527" lon="3.62373">
        <ele>153.47</ele>
        <time>2015-11-08T10:57:11Z</time>
      </trkpt>
      <trkpt lat="50.11528" lon="3.62373">
        <ele>152.99</ele>
        <time>2015-11-08T10:57:12Z</time>
      </trkpt>
      <trkpt lat="50.11529" lon="3.62375">
        <ele>152.99</ele>
        <time>2015-11-08T10:57:13Z</time>
      </trkpt>
      <trkpt lat="50.1153" lon="3.62375">
        <ele>152.99</ele>
        <time>2015-11-08T10:57:14Z</time>
      </trkpt>
      <trkpt lat="50.11532" lon="3.62376">
        <ele>152.99</ele>
        <time>2015-11-08T10:57:15Z</time>
      </trkpt>
      <trkpt lat="50.11533" lon="3.62376">
        <ele>152.99</ele>
        <time>2015-11-08T10:57:16Z</time>
      </trkpt>
      <trkpt lat="50.11535" lon="3.62376">
        <ele>152.99</ele>
        <time>2015-11-08T10:57:17Z</time>
      </trkpt>
      <trkpt lat="50.11536" lon="3.62374">
        <ele>152.99</ele>
        <time>2015-11-08T10:57:18Z</time>
      </trkpt>
      <trkpt lat="50.11538" lon="3.62373">
        <ele>152.99</ele>
        <time>2015-11-08T10:57:19Z</time>
      </trkpt>
      <trkpt lat="50.1154" lon="3.62373">
        <ele>152.99</ele>
        <time>2015-11-08T10:57:20Z</time>
      </trkpt>
      <trkpt lat="50.11542" lon="3.62372">
        <ele>152.99</ele>
        <time>2015-11-08T10:57:21Z</time>
      </trkpt>
      <trkpt lat="50.11543" lon="3.62372">
        <ele>152.99</ele>
        <time>2015-11-08T10:57:22Z</time>
      </trkpt>
      <trkpt lat="50.11544" lon="3.62373">
        <ele>152.99</ele>
        <time>2015-11-08T10:57:23Z</time>
      </trkpt>
      <trkpt lat="50.11546" lon="3.62375">
        <ele>152.99</ele>
        <time>2015-11-08T10:57:24Z</time>
      </trkpt>
      <trkpt lat="50.11547" lon="3.62377">
        <ele>152.99</ele>
        <time>2015-11-08T10:57:25Z</time>
      </trkpt>
      <trkpt lat="50.11549" lon="3.62378">
        <ele>152.99</ele>
        <time>2015-11-08T10:57:26Z</time>
      </trkpt>
      <trkpt lat="50.1155" lon="3.62378">
        <ele>152.99</ele>
        <time>2015-11-08T10:57:27Z</time>
      </trkpt>
      <trkpt lat="50.11552" lon="3.62379">
        <ele>152.99</ele>
        <time>2015-11-08T10:57:29Z</time>
      </trkpt>
      <trkpt lat="50.11567" lon="3.62372">
        <ele>152.99</ele>
        <time>2015-11-08T10:57:41Z</time>
      </trkpt>
      <trkpt lat="50.11579" lon="3.62365">
        <ele>152.99</ele>
        <time>2015-11-08T10:57:51Z</time>
      </trkpt>
      <trkpt lat="50.11601" lon="3.62354">
        <ele>152.99</ele>
        <time>2015-11-08T10:58:03Z</time>
      </trkpt>
      <trkpt lat="50.11624" lon="3.62337">
        <ele>152.99</ele>
        <time>2015-11-08T10:58:17Z</time>
      </trkpt>
      <trkpt lat="50.1164" lon="3.62319">
        <ele>152.99</ele>
        <time>2015-11-08T10:58:29Z</time>
      </trkpt>
      <trkpt lat="50.11653" lon="3.62297">
        <ele>152.99</ele>
        <time>2015-11-08T10:58:41Z</time>
      </trkpt>
      <trkpt lat="50.11656" lon="3.62286">
        <ele>152.99</ele>
        <time>2015-11-08T10:59:11Z</time>
      </trkpt>
      <trkpt lat="50.11665" lon="3.62281">
        <ele>152.99</ele>
        <time>2015-11-08T10:59:29Z</time>
      </trkpt>
      <trkpt lat="50.11671" lon="3.62267">
        <ele>152.99</ele>
        <time>2015-11-08T10:59:44Z</time>
      </trkpt>
      <trkpt lat="50.11685" lon="3.62239">
        <ele>152.99</ele>
        <time>2015-11-08T10:59:55Z</time>
      </trkpt>
      <trkpt lat="50.11702" lon="3.62216">
        <ele>152.03</ele>
        <time>2015-11-08T11:00:05Z</time>
      </trkpt>
      <trkpt lat="50.11724" lon="3.62197">
        <ele>153.47</ele>
        <time>2015-11-08T11:00:20Z</time>
      </trkpt>
      <trkpt lat="50.11728" lon="3.62193">
        <ele>153.95</ele>
        <time>2015-11-08T11:00:23Z</time>
      </trkpt>
      <trkpt lat="50.11729" lon="3.62193">
        <ele>153.95</ele>
        <time>2015-11-08T11:00:24Z</time>
      </trkpt>
      <trkpt lat="50.11735" lon="3.62191">
        <ele>154.91</ele>
        <time>2015-11-08T11:00:37Z</time>
      </trkpt>
      <trkpt lat="50.11742" lon="3.62185">
        <ele>154.91</ele>
        <time>2015-11-08T11:00:58Z</time>
      </trkpt>
      <trkpt lat="50.11756" lon="3.62177">
        <ele>155.39</ele>
        <time>2015-11-08T11:01:14Z</time>
      </trkpt>
      <trkpt lat="50.11769" lon="3.62167">
        <ele>155.87</ele>
        <time>2015-11-08T11:01:27Z</time>
      </trkpt>
      <trkpt lat="50.1178" lon="3.62157">
        <ele>156.35</ele>
        <time>2015-11-08T11:01:43Z</time>
      </trkpt>
      <trkpt lat="50.11793" lon="3.6215">
        <ele>156.83</ele>
        <time>2015-11-08T11:01:59Z</time>
      </trkpt>
      <trkpt lat="50.11803" lon="3.62144">
        <ele>156.83</ele>
        <time>2015-11-08T11:02:16Z</time>
      </trkpt>
      <trkpt lat="50.11811" lon="3.62137">
        <ele>157.79</ele>
        <time>2015-11-08T11:02:32Z</time>
      </trkpt>
      <trkpt lat="50.11813" lon="3.62136">
        <ele>157.79</ele>
        <time>2015-11-08T11:02:33Z</time>
      </trkpt>
      <trkpt lat="50.11824" lon="3.62128">
        <ele>158.27</ele>
        <time>2015-11-08T11:02:48Z</time>
      </trkpt>
      <trkpt lat="50.11836" lon="3.62119">
        <ele>158.75</ele>
        <time>2015-11-08T11:03:05Z</time>
      </trkpt>
      <trkpt lat="50.11851" lon="3.6211">
        <ele>159.24</ele>
        <time>2015-11-08T11:03:25Z</time>
      </trkpt>
      <trkpt lat="50.11865" lon="3.62099">
        <ele>160.2</ele>
        <time>2015-11-08T11:03:42Z</time>
      </trkpt>
      <trkpt lat="50.11869" lon="3.62093">
        <ele>160.68</ele>
        <time>2015-11-08T11:04:01Z</time>
      </trkpt>
      <trkpt lat="50.11872" lon="3.62093">
        <ele>160.68</ele>
        <time>2015-11-08T11:04:27Z</time>
      </trkpt>
      <trkpt lat="50.11878" lon="3.6209">
        <ele>161.16</ele>
        <time>2015-11-08T11:04:42Z</time>
      </trkpt>
      <trkpt lat="50.11879" lon="3.62088">
        <ele>161.16</ele>
        <time>2015-11-08T11:05:02Z</time>
      </trkpt>
      <trkpt lat="50.11881" lon="3.62087">
        <ele>161.16</ele>
        <time>2015-11-08T11:05:03Z</time>
      </trkpt>
      <trkpt lat="50.11883" lon="3.62085">
        <ele>161.16</ele>
        <time>2015-11-08T11:05:04Z</time>
      </trkpt>
      <trkpt lat="50.11893" lon="3.62076">
        <ele>162.12</ele>
        <time>2015-11-08T11:05:16Z</time>
      </trkpt>
      <trkpt lat="50.11897" lon="3.62084">
        <ele>162.6</ele>
        <time>2015-11-08T11:05:51Z</time>
      </trkpt>
      <trkpt lat="50.11899" lon="3.62082">
        <ele>162.6</ele>
        <time>2015-11-08T11:06:04Z</time>
      </trkpt>
      <trkpt lat="50.11921" lon="3.62068">
        <ele>164.52</ele>
        <time>2015-11-08T11:06:19Z</time>
      </trkpt>
      <trkpt lat="50.11937" lon="3.62055">
        <ele>165</ele>
        <time>2015-11-08T11:06:31Z</time>
      </trkpt>
      <trkpt lat="50.11948" lon="3.62048">
        <ele>165.48</ele>
        <time>2015-11-08T11:06:46Z</time>
      </trkpt>
      <trkpt lat="50.11957" lon="3.62041">
        <ele>165.96</ele>
        <time>2015-11-08T11:07:04Z</time>
      </trkpt>
      <trkpt lat="50.11974" lon="3.6203">
        <ele>166.45</ele>
        <time>2015-11-08T11:07:18Z</time>
      </trkpt>
      <trkpt lat="50.11988" lon="3.62019">
        <ele>166.93</ele>
        <time>2015-11-08T11:07:30Z</time>
      </trkpt>
      <trkpt lat="50.1201" lon="3.62004">
        <ele>167.89</ele>
        <time>2015-11-08T11:07:43Z</time>
      </trkpt>
      <trkpt lat="50.12027" lon="3.61993">
        <ele>167.89</ele>
        <time>2015-11-08T11:07:56Z</time>
      </trkpt>
      <trkpt lat="50.12042" lon="3.61993">
        <ele>167.89</ele>
        <time>2015-11-08T11:08:13Z</time>
      </trkpt>
      <trkpt lat="50.1205" lon="3.61996">
        <ele>167.89</ele>
        <time>2015-11-08T11:08:30Z</time>
      </trkpt>
      <trkpt lat="50.12054" lon="3.61998">
        <ele>168.37</ele>
        <time>2015-11-08T11:08:46Z</time>
      </trkpt>
      <trkpt lat="50.12058" lon="3.6199">
        <ele>168.37</ele>
        <time>2015-11-08T11:08:59Z</time>
      </trkpt>
      <trkpt lat="50.12057" lon="3.61989">
        <ele>168.85</ele>
        <time>2015-11-08T11:09:22Z</time>
      </trkpt>
      <trkpt lat="50.12058" lon="3.61986">
        <ele>168.85</ele>
        <time>2015-11-08T11:09:39Z</time>
      </trkpt>
      <trkpt lat="50.12058" lon="3.61989">
        <ele>168.85</ele>
        <time>2015-11-08T11:09:49Z</time>
      </trkpt>
      <trkpt lat="50.12061" lon="3.61985">
        <ele>168.85</ele>
        <time>2015-11-08T11:10:08Z</time>
      </trkpt>
      <trkpt lat="50.12061" lon="3.61982">
        <ele>168.85</ele>
        <time>2015-11-08T11:10:10Z</time>
      </trkpt>
      <trkpt lat="50.12062" lon="3.6198">
        <ele>168.85</ele>
        <time>2015-11-08T11:10:11Z</time>
      </trkpt>
      <trkpt lat="50.12063" lon="3.61978">
        <ele>168.85</ele>
        <time>2015-11-08T11:10:12Z</time>
      </trkpt>
      <trkpt lat="50.12064" lon="3.61976">
        <ele>168.85</ele>
        <time>2015-11-08T11:10:13Z</time>
      </trkpt>
      <trkpt lat="50.12065" lon="3.61974">
        <ele>168.85</ele>
        <time>2015-11-08T11:10:14Z</time>
      </trkpt>
      <trkpt lat="50.12081" lon="3.61935">
        <ele>168.85</ele>
        <time>2015-11-08T11:10:29Z</time>
      </trkpt>
      <trkpt lat="50.12103" lon="3.61891">
        <ele>168.37</ele>
        <time>2015-11-08T11:10:42Z</time>
      </trkpt>
      <trkpt lat="50.12127" lon="3.61838">
        <ele>168.37</ele>
        <time>2015-11-08T11:10:55Z</time>
      </trkpt>
      <trkpt lat="50.12148" lon="3.61788">
        <ele>169.33</ele>
        <time>2015-11-08T11:11:09Z</time>
      </trkpt>
      <trkpt lat="50.12166" lon="3.61748">
        <ele>170.29</ele>
        <time>2015-11-08T11:11:22Z</time>
      </trkpt>
      <trkpt lat="50.12186" lon="3.61704">
        <ele>170.77</ele>
        <time>2015-11-08T11:11:37Z</time>
      </trkpt>
      <trkpt lat="50.12205" lon="3.61659">
        <ele>171.25</ele>
        <time>2015-11-08T11:11:52Z</time>
      </trkpt>
      <trkpt lat="50.12222" lon="3.6162">
        <ele>171.25</ele>
        <time>2015-11-08T11:12:02Z</time>
      </trkpt>
      <trkpt lat="50.12228" lon="3.61603">
        <ele>171.25</ele>
        <time>2015-11-08T11:12:05Z</time>
      </trkpt>
      <trkpt lat="50.12249" lon="3.61554">
        <ele>167.41</ele>
        <time>2015-11-08T11:12:12Z</time>
      </trkpt>
      <trkpt lat="50.12286" lon="3.61471">
        <ele>165.48</ele>
        <time>2015-11-08T11:12:23Z</time>
      </trkpt>
      <trkpt lat="50.12289" lon="3.61465">
        <ele>165.48</ele>
        <time>2015-11-08T11:12:24Z</time>
      </trkpt>
      <trkpt lat="50.12291" lon="3.6146">
        <ele>165.48</ele>
        <time>2015-11-08T11:12:25Z</time>
      </trkpt>
      <trkpt lat="50.12316" lon="3.61401">
        <ele>167.89</ele>
        <time>2015-11-08T11:12:40Z</time>
      </trkpt>
      <trkpt lat="50.12337" lon="3.61355">
        <ele>167.89</ele>
        <time>2015-11-08T11:12:53Z</time>
      </trkpt>
      <trkpt lat="50.12347" lon="3.61331">
        <ele>167.89</ele>
        <time>2015-11-08T11:12:58Z</time>
      </trkpt>
      <trkpt lat="50.12349" lon="3.61325">
        <ele>167.89</ele>
        <time>2015-11-08T11:12:59Z</time>
      </trkpt>
      <trkpt lat="50.12383" lon="3.61246">
        <ele>165.96</ele>
        <time>2015-11-08T11:13:15Z</time>
      </trkpt>
      <trkpt lat="50.12408" lon="3.61184">
        <ele>163.08</ele>
        <time>2015-11-08T11:13:27Z</time>
      </trkpt>
      <trkpt lat="50.12411" lon="3.61178">
        <ele>163.08</ele>
        <time>2015-11-08T11:13:28Z</time>
      </trkpt>
      <trkpt lat="50.12456" lon="3.61073">
        <ele>161.16</ele>
        <time>2015-11-08T11:13:44Z</time>
      </trkpt>
      <trkpt lat="50.12483" lon="3.61013">
        <ele>163.08</ele>
        <time>2015-11-08T11:13:58Z</time>
      </trkpt>
      <trkpt lat="50.12505" lon="3.60964">
        <ele>164.52</ele>
        <time>2015-11-08T11:14:11Z</time>
      </trkpt>
      <trkpt lat="50.12531" lon="3.60906">
        <ele>165</ele>
        <time>2015-11-08T11:14:25Z</time>
      </trkpt>
      <trkpt lat="50.12559" lon="3.60843">
        <ele>165.48</ele>
        <time>2015-11-08T11:14:38Z</time>
      </trkpt>
      <trkpt lat="50.12589" lon="3.60775">
        <ele>165</ele>
        <time>2015-11-08T11:14:53Z</time>
      </trkpt>
      <trkpt lat="50.12597" lon="3.60764">
        <ele>164.04</ele>
        <time>2015-11-08T11:14:56Z</time>
      </trkpt>
      <trkpt lat="50.12604" lon="3.60756">
        <ele>163.08</ele>
        <time>2015-11-08T11:14:58Z</time>
      </trkpt>
      <trkpt lat="50.12608" lon="3.60753">
        <ele>163.08</ele>
        <time>2015-11-08T11:14:59Z</time>
      </trkpt>
      <trkpt lat="50.12614" lon="3.6075">
        <ele>162.6</ele>
        <time>2015-11-08T11:15:00Z</time>
      </trkpt>
      <trkpt lat="50.1263" lon="3.60743">
        <ele>161.16</ele>
        <time>2015-11-08T11:15:03Z</time>
      </trkpt>
      <trkpt lat="50.12696" lon="3.6072">
        <ele>159.72</ele>
        <time>2015-11-08T11:15:18Z</time>
      </trkpt>
      <trkpt lat="50.127" lon="3.60719">
        <ele>159.72</ele>
        <time>2015-11-08T11:15:27Z</time>
      </trkpt>
      <trkpt lat="50.12717" lon="3.60712">
        <ele>159.72</ele>
        <time>2015-11-08T11:15:39Z</time>
      </trkpt>
      <trkpt lat="50.12748" lon="3.60703">
        <ele>159.72</ele>
        <time>2015-11-08T11:15:52Z</time>
      </trkpt>
      <trkpt lat="50.12749" lon="3.60703">
        <ele>159.72</ele>
        <time>2015-11-08T11:15:53Z</time>
      </trkpt>
      <trkpt lat="50.12751" lon="3.60705">
        <ele>159.72</ele>
        <time>2015-11-08T11:15:55Z</time>
      </trkpt>
      <trkpt lat="50.12768" lon="3.60734">
        <ele>151.54</ele>
        <time>2015-11-08T11:17:35Z</time>
      </trkpt>
      <trkpt lat="50.12757" lon="3.6073">
        <ele>151.54</ele>
        <time>2015-11-08T11:17:50Z</time>
      </trkpt>
      <trkpt lat="50.12756" lon="3.60731">
        <ele>152.03</ele>
        <time>2015-11-08T11:17:59Z</time>
      </trkpt>
      <trkpt lat="50.12757" lon="3.60736">
        <ele>152.51</ele>
        <time>2015-11-08T11:18:14Z</time>
      </trkpt>
      <trkpt lat="50.1276" lon="3.60732">
        <ele>152.51</ele>
        <time>2015-11-08T11:18:27Z</time>
      </trkpt>
      <trkpt lat="50.12767" lon="3.60728">
        <ele>152.51</ele>
        <time>2015-11-08T11:18:39Z</time>
      </trkpt>
      <trkpt lat="50.1277" lon="3.60707">
        <ele>155.87</ele>
        <time>2015-11-08T11:18:52Z</time>
      </trkpt>
      <trkpt lat="50.12772" lon="3.60699">
        <ele>157.31</ele>
        <time>2015-11-08T11:18:56Z</time>
      </trkpt>
      <trkpt lat="50.12772" lon="3.60696">
        <ele>157.79</ele>
        <time>2015-11-08T11:18:58Z</time>
      </trkpt>
      <trkpt lat="50.12774" lon="3.60687">
        <ele>159.24</ele>
        <time>2015-11-08T11:19:07Z</time>
      </trkpt>
      <trkpt lat="50.12773" lon="3.60674">
        <ele>160.68</ele>
        <time>2015-11-08T11:19:19Z</time>
      </trkpt>
      <trkpt lat="50.12769" lon="3.60664">
        <ele>161.64</ele>
        <time>2015-11-08T11:19:34Z</time>
      </trkpt>
      <trkpt lat="50.12767" lon="3.60663">
        <ele>161.64</ele>
        <time>2015-11-08T11:19:57Z</time>
      </trkpt>
      <trkpt lat="50.12764" lon="3.6065">
        <ele>162.12</ele>
        <time>2015-11-08T11:20:11Z</time>
      </trkpt>
      <trkpt lat="50.1276" lon="3.60637">
        <ele>163.08</ele>
        <time>2015-11-08T11:20:27Z</time>
      </trkpt>
      <trkpt lat="50.12754" lon="3.60627">
        <ele>163.56</ele>
        <time>2015-11-08T11:20:42Z</time>
      </trkpt>
      <trkpt lat="50.12753" lon="3.60622">
        <ele>163.56</ele>
        <time>2015-11-08T11:20:58Z</time>
      </trkpt>
      <trkpt lat="50.12754" lon="3.6062">
        <ele>163.56</ele>
        <time>2015-11-08T11:21:13Z</time>
      </trkpt>
      <trkpt lat="50.12752" lon="3.6062">
        <ele>163.56</ele>
        <time>2015-11-08T11:21:26Z</time>
      </trkpt>
      <trkpt lat="50.1275" lon="3.60616">
        <ele>163.08</ele>
        <time>2015-11-08T11:21:43Z</time>
      </trkpt>
      <trkpt lat="50.12748" lon="3.6061">
        <ele>163.08</ele>
        <time>2015-11-08T11:22:01Z</time>
      </trkpt>
      <trkpt lat="50.12746" lon="3.60609">
        <ele>163.08</ele>
        <time>2015-11-08T11:22:20Z</time>
      </trkpt>
      <trkpt lat="50.12744" lon="3.6061">
        <ele>163.08</ele>
        <time>2015-11-08T11:22:36Z</time>
      </trkpt>
      <trkpt lat="50.12743" lon="3.6061">
        <ele>163.08</ele>
        <time>2015-11-08T11:22:59Z</time>
      </trkpt>
      <trkpt lat="50.12744" lon="3.60607">
        <ele>163.56</ele>
        <time>2015-11-08T11:23:14Z</time>
      </trkpt>
      <trkpt lat="50.12743" lon="3.60604">
        <ele>163.56</ele>
        <time>2015-11-08T11:23:30Z</time>
      </trkpt>
      <trkpt lat="50.1274" lon="3.60603">
        <ele>163.56</ele>
        <time>2015-11-08T11:23:44Z</time>
      </trkpt>
      <trkpt lat="50.1274" lon="3.60604">
        <ele>163.56</ele>
        <time>2015-11-08T11:24:01Z</time>
      </trkpt>
      <trkpt lat="50.12742" lon="3.60607">
        <ele>163.56</ele>
        <time>2015-11-08T11:24:22Z</time>
      </trkpt>
      <trkpt lat="50.12751" lon="3.60618">
        <ele>163.56</ele>
        <time>2015-11-08T11:24:34Z</time>
      </trkpt>
      <trkpt lat="50.12756" lon="3.6063">
        <ele>161.64</ele>
        <time>2015-11-08T11:24:47Z</time>
      </trkpt>
      <trkpt lat="50.12759" lon="3.60634">
        <ele>160.68</ele>
        <time>2015-11-08T11:25:04Z</time>
      </trkpt>
      <trkpt lat="50.1276" lon="3.60639">
        <ele>160.68</ele>
        <time>2015-11-08T11:25:13Z</time>
      </trkpt>
      <trkpt lat="50.12778" lon="3.60693">
        <ele>161.64</ele>
        <time>2015-11-08T11:26:40Z</time>
      </trkpt>
      <trkpt lat="50.12757" lon="3.60632">
        <ele>162.12</ele>
        <time>2015-11-08T11:26:57Z</time>
      </trkpt>
      <trkpt lat="50.12755" lon="3.6063">
        <ele>162.6</ele>
        <time>2015-11-08T11:27:15Z</time>
      </trkpt>
      <trkpt lat="50.12757" lon="3.60636">
        <ele>162.6</ele>
        <time>2015-11-08T11:27:32Z</time>
      </trkpt>
      <trkpt lat="50.12757" lon="3.60637">
        <ele>162.6</ele>
        <time>2015-11-08T11:27:49Z</time>
      </trkpt>
      <trkpt lat="50.12758" lon="3.60637">
        <ele>162.6</ele>
        <time>2015-11-08T11:28:06Z</time>
      </trkpt>
      <trkpt lat="50.12758" lon="3.60635">
        <ele>162.6</ele>
        <time>2015-11-08T11:28:21Z</time>
      </trkpt>
      <trkpt lat="50.12757" lon="3.60631">
        <ele>162.6</ele>
        <time>2015-11-08T11:28:39Z</time>
      </trkpt>
      <trkpt lat="50.12756" lon="3.60635">
        <ele>162.6</ele>
        <time>2015-11-08T11:28:56Z</time>
      </trkpt>
      <trkpt lat="50.12757" lon="3.60636">
        <ele>162.6</ele>
        <time>2015-11-08T11:29:10Z</time>
      </trkpt>
      <trkpt lat="50.12753" lon="3.60634">
        <ele>162.6</ele>
        <time>2015-11-08T11:29:27Z</time>
      </trkpt>
      <trkpt lat="50.12753" lon="3.6063">
        <ele>162.6</ele>
        <time>2015-11-08T11:29:49Z</time>
      </trkpt>
      <trkpt lat="50.12754" lon="3.60632">
        <ele>162.6</ele>
        <time>2015-11-08T11:30:10Z</time>
      </trkpt>
      <trkpt lat="50.12753" lon="3.60634">
        <ele>162.6</ele>
        <time>2015-11-08T11:30:22Z</time>
      </trkpt>
      <trkpt lat="50.12755" lon="3.60631">
        <ele>162.6</ele>
        <time>2015-11-08T11:30:37Z</time>
      </trkpt>
      <trkpt lat="50.12753" lon="3.60634">
        <ele>162.6</ele>
        <time>2015-11-08T11:30:52Z</time>
      </trkpt>
      <trkpt lat="50.12753" lon="3.60634">
        <ele>163.08</ele>
        <time>2015-11-08T11:31:12Z</time>
      </trkpt>
      <trkpt lat="50.12751" lon="3.60634">
        <ele>163.08</ele>
        <time>2015-11-08T11:31:39Z</time>
      </trkpt>
      <trkpt lat="50.12755" lon="3.60633">
        <ele>163.08</ele>
        <time>2015-11-08T11:31:59Z</time>
      </trkpt>
      <trkpt lat="50.12751" lon="3.60629">
        <ele>163.08</ele>
        <time>2015-11-08T11:32:23Z</time>
      </trkpt>
      <trkpt lat="50.12751" lon="3.60632">
        <ele>163.08</ele>
        <time>2015-11-08T11:32:46Z</time>
      </trkpt>
      <trkpt lat="50.12751" lon="3.60634">
        <ele>163.56</ele>
        <time>2015-11-08T11:33:15Z</time>
      </trkpt>
      <trkpt lat="50.12752" lon="3.60632">
        <ele>163.56</ele>
        <time>2015-11-08T11:33:49Z</time>
      </trkpt>
      <trkpt lat="50.12752" lon="3.60631">
        <ele>164.04</ele>
        <time>2015-11-08T11:34:11Z</time>
      </trkpt>
      <trkpt lat="50.12752" lon="3.60631">
        <ele>163.56</ele>
        <time>2015-11-08T11:34:30Z</time>
      </trkpt>
      <trkpt lat="50.12757" lon="3.6063">
        <ele>163.56</ele>
        <time>2015-11-08T11:34:48Z</time>
      </trkpt>
      <trkpt lat="50.12757" lon="3.60631">
        <ele>162.6</ele>
        <time>2015-11-08T11:34:59Z</time>
      </trkpt>
      <trkpt lat="50.12758" lon="3.60633">
        <ele>164.04</ele>
        <time>2015-11-08T11:35:04Z</time>
      </trkpt>
      <trkpt lat="50.12763" lon="3.60631">
        <ele>164.04</ele>
        <time>2015-11-08T11:35:22Z</time>
      </trkpt>
      <trkpt lat="50.12758" lon="3.6063">
        <ele>164.04</ele>
        <time>2015-11-08T11:35:54Z</time>
      </trkpt>
      <trkpt lat="50.12757" lon="3.60629">
        <ele>164.04</ele>
        <time>2015-11-08T11:36:07Z</time>
      </trkpt>
      <trkpt lat="50.12757" lon="3.60628">
        <ele>164.04</ele>
        <time>2015-11-08T11:36:38Z</time>
      </trkpt>
      <trkpt lat="50.12758" lon="3.60631">
        <ele>164.04</ele>
        <time>2015-11-08T11:36:52Z</time>
      </trkpt>
      <trkpt lat="50.12758" lon="3.60632">
        <ele>164.04</ele>
        <time>2015-11-08T11:36:53Z</time>
      </trkpt>
      <trkpt lat="50.12761" lon="3.60647">
        <ele>162.6</ele>
        <time>2015-11-08T11:36:58Z</time>
      </trkpt>
      <trkpt lat="50.1277" lon="3.60686">
        <ele>161.16</ele>
        <time>2015-11-08T11:37:11Z</time>
      </trkpt>
      <trkpt lat="50.1277" lon="3.60694">
        <ele>160.68</ele>
        <time>2015-11-08T11:37:24Z</time>
      </trkpt>
      <trkpt lat="50.12769" lon="3.60694">
        <ele>160.68</ele>
        <time>2015-11-08T11:37:45Z</time>
      </trkpt>
      <trkpt lat="50.12769" lon="3.60698">
        <ele>160.2</ele>
        <time>2015-11-08T11:38:00Z</time>
      </trkpt>
      <trkpt lat="50.1277" lon="3.60697">
        <ele>160.2</ele>
        <time>2015-11-08T11:38:26Z</time>
      </trkpt>
      <trkpt lat="50.12769" lon="3.60696">
        <ele>160.2</ele>
        <time>2015-11-08T11:38:37Z</time>
      </trkpt>
      <trkpt lat="50.12767" lon="3.60697">
        <ele>159.72</ele>
        <time>2015-11-08T11:38:55Z</time>
      </trkpt>
      <trkpt lat="50.12766" lon="3.60697">
        <ele>159.72</ele>
        <time>2015-11-08T11:38:56Z</time>
      </trkpt>
      <trkpt lat="50.12733" lon="3.60707">
        <ele>161.16</ele>
        <time>2015-11-08T11:39:11Z</time>
      </trkpt>
      <trkpt lat="50.12712" lon="3.60715">
        <ele>160.2</ele>
        <time>2015-11-08T11:39:23Z</time>
      </trkpt>
      <trkpt lat="50.12694" lon="3.60722">
        <ele>160.2</ele>
        <time>2015-11-08T11:39:36Z</time>
      </trkpt>
      <trkpt lat="50.12663" lon="3.6073">
        <ele>159.72</ele>
        <time>2015-11-08T11:39:51Z</time>
      </trkpt>
      <trkpt lat="50.12626" lon="3.60741">
        <ele>161.64</ele>
        <time>2015-11-08T11:40:08Z</time>
      </trkpt>
      <trkpt lat="50.12604" lon="3.6075">
        <ele>163.56</ele>
        <time>2015-11-08T11:40:23Z</time>
      </trkpt>
      <trkpt lat="50.12599" lon="3.60751">
        <ele>163.08</ele>
        <time>2015-11-08T11:40:45Z</time>
      </trkpt>
      <trkpt lat="50.12595" lon="3.60756">
        <ele>163.08</ele>
        <time>2015-11-08T11:40:59Z</time>
      </trkpt>
      <trkpt lat="50.12593" lon="3.60759">
        <ele>163.56</ele>
        <time>2015-11-08T11:41:06Z</time>
      </trkpt>
      <trkpt lat="50.12586" lon="3.60769">
        <ele>164.04</ele>
        <time>2015-11-08T11:41:13Z</time>
      </trkpt>
      <trkpt lat="50.12585" lon="3.60772">
        <ele>164.52</ele>
        <time>2015-11-08T11:41:14Z</time>
      </trkpt>
      <trkpt lat="50.12583" lon="3.60775">
        <ele>164.52</ele>
        <time>2015-11-08T11:41:15Z</time>
      </trkpt>
      <trkpt lat="50.12581" lon="3.60777">
        <ele>164.52</ele>
        <time>2015-11-08T11:41:16Z</time>
      </trkpt>
      <trkpt lat="50.1258" lon="3.6078">
        <ele>164.52</ele>
        <time>2015-11-08T11:41:17Z</time>
      </trkpt>
      <trkpt lat="50.12564" lon="3.60814">
        <ele>165.48</ele>
        <time>2015-11-08T11:41:31Z</time>
      </trkpt>
      <trkpt lat="50.12559" lon="3.60826">
        <ele>165.48</ele>
        <time>2015-11-08T11:41:36Z</time>
      </trkpt>
      <trkpt lat="50.12557" lon="3.60829">
        <ele>165.48</ele>
        <time>2015-11-08T11:41:37Z</time>
      </trkpt>
      <trkpt lat="50.12533" lon="3.60876">
        <ele>165.48</ele>
        <time>2015-11-08T11:41:54Z</time>
      </trkpt>
      <trkpt lat="50.12512" lon="3.60929">
        <ele>165.48</ele>
        <time>2015-11-08T11:42:09Z</time>
      </trkpt>
      <trkpt lat="50.12487" lon="3.60987">
        <ele>164.04</ele>
        <time>2015-11-08T11:42:22Z</time>
      </trkpt>
      <trkpt lat="50.12478" lon="3.61004">
        <ele>164.04</ele>
        <time>2015-11-08T11:42:25Z</time>
      </trkpt>
      <trkpt lat="50.12443" lon="3.61079">
        <ele>161.16</ele>
        <time>2015-11-08T11:42:37Z</time>
      </trkpt>
      <trkpt lat="50.12425" lon="3.61121">
        <ele>160.2</ele>
        <time>2015-11-08T11:42:49Z</time>
      </trkpt>
      <trkpt lat="50.12403" lon="3.61179">
        <ele>163.08</ele>
        <time>2015-11-08T11:43:07Z</time>
      </trkpt>
      <trkpt lat="50.12385" lon="3.6122">
        <ele>164.52</ele>
        <time>2015-11-08T11:43:19Z</time>
      </trkpt>
      <trkpt lat="50.12364" lon="3.61269">
        <ele>165.96</ele>
        <time>2015-11-08T11:43:34Z</time>
      </trkpt>
      <trkpt lat="50.12344" lon="3.61314">
        <ele>166.45</ele>
        <time>2015-11-08T11:43:49Z</time>
      </trkpt>
      <trkpt lat="50.12336" lon="3.61335">
        <ele>166.93</ele>
        <time>2015-11-08T11:44:03Z</time>
      </trkpt>
      <trkpt lat="50.12335" lon="3.61343">
        <ele>166.93</ele>
        <time>2015-11-08T11:44:32Z</time>
      </trkpt>
      <trkpt lat="50.12325" lon="3.61368">
        <ele>167.41</ele>
        <time>2015-11-08T11:44:42Z</time>
      </trkpt>
      <trkpt lat="50.123" lon="3.61427">
        <ele>167.41</ele>
        <time>2015-11-08T11:44:56Z</time>
      </trkpt>
      <trkpt lat="50.12287" lon="3.61456">
        <ele>165.96</ele>
        <time>2015-11-08T11:45:01Z</time>
      </trkpt>
      <trkpt lat="50.12276" lon="3.61482">
        <ele>165.96</ele>
        <time>2015-11-08T11:45:05Z</time>
      </trkpt>
      <trkpt lat="50.1225" lon="3.61545">
        <ele>167.41</ele>
        <time>2015-11-08T11:45:18Z</time>
      </trkpt>
      <trkpt lat="50.12248" lon="3.61548">
        <ele>167.41</ele>
        <time>2015-11-08T11:45:19Z</time>
      </trkpt>
      <trkpt lat="50.12224" lon="3.616">
        <ele>170.29</ele>
        <time>2015-11-08T11:45:33Z</time>
      </trkpt>
      <trkpt lat="50.12197" lon="3.61659">
        <ele>170.29</ele>
        <time>2015-11-08T11:45:49Z</time>
      </trkpt>
      <trkpt lat="50.12173" lon="3.61721">
        <ele>170.29</ele>
        <time>2015-11-08T11:46:06Z</time>
      </trkpt>
      <trkpt lat="50.12141" lon="3.61793">
        <ele>168.85</ele>
        <time>2015-11-08T11:46:23Z</time>
      </trkpt>
      <trkpt lat="50.12139" lon="3.61798">
        <ele>168.85</ele>
        <time>2015-11-08T11:46:24Z</time>
      </trkpt>
      <trkpt lat="50.12137" lon="3.61804">
        <ele>168.85</ele>
        <time>2015-11-08T11:46:25Z</time>
      </trkpt>
      <trkpt lat="50.12134" lon="3.61809">
        <ele>168.85</ele>
        <time>2015-11-08T11:46:26Z</time>
      </trkpt>
      <trkpt lat="50.12094" lon="3.61896">
        <ele>167.41</ele>
        <time>2015-11-08T11:46:42Z</time>
      </trkpt>
      <trkpt lat="50.1206" lon="3.61966">
        <ele>167.41</ele>
        <time>2015-11-08T11:46:58Z</time>
      </trkpt>
      <trkpt lat="50.12042" lon="3.62007">
        <ele>167.41</ele>
        <time>2015-11-08T11:47:11Z</time>
      </trkpt>
      <trkpt lat="50.12033" lon="3.62036">
        <ele>167.41</ele>
        <time>2015-11-08T11:47:22Z</time>
      </trkpt>
      <trkpt lat="50.12021" lon="3.62063">
        <ele>166.93</ele>
        <time>2015-11-08T11:47:35Z</time>
      </trkpt>
      <trkpt lat="50.12" lon="3.62101">
        <ele>166.93</ele>
        <time>2015-11-08T11:47:52Z</time>
      </trkpt>
      <trkpt lat="50.11984" lon="3.62142">
        <ele>166.45</ele>
        <time>2015-11-08T11:48:10Z</time>
      </trkpt>
      <trkpt lat="50.11966" lon="3.62182">
        <ele>165.96</ele>
        <time>2015-11-08T11:48:26Z</time>
      </trkpt>
      <trkpt lat="50.11933" lon="3.6225">
        <ele>164.52</ele>
        <time>2015-11-08T11:48:43Z</time>
      </trkpt>
      <trkpt lat="50.11903" lon="3.62318">
        <ele>161.64</ele>
        <time>2015-11-08T11:48:56Z</time>
      </trkpt>
      <trkpt lat="50.11868" lon="3.62396">
        <ele>158.75</ele>
        <time>2015-11-08T11:49:08Z</time>
      </trkpt>
      <trkpt lat="50.11839" lon="3.62457">
        <ele>157.31</ele>
        <time>2015-11-08T11:49:21Z</time>
      </trkpt>
      <trkpt lat="50.11833" lon="3.62471">
        <ele>157.79</ele>
        <time>2015-11-08T11:49:35Z</time>
      </trkpt>
      <trkpt lat="50.11829" lon="3.62478">
        <ele>157.79</ele>
        <time>2015-11-08T11:49:41Z</time>
      </trkpt>
      <trkpt lat="50.11829" lon="3.6248">
        <ele>157.79</ele>
        <time>2015-11-08T11:49:42Z</time>
      </trkpt>
      <trkpt lat="50.11828" lon="3.62481">
        <ele>157.79</ele>
        <time>2015-11-08T11:49:43Z</time>
      </trkpt>
      <trkpt lat="50.11826" lon="3.62488">
        <ele>159.24</ele>
        <time>2015-11-08T11:49:46Z</time>
      </trkpt>
      <trkpt lat="50.11816" lon="3.62505">
        <ele>159.72</ele>
        <time>2015-11-08T11:49:56Z</time>
      </trkpt>
      <trkpt lat="50.11815" lon="3.62507">
        <ele>160.2</ele>
        <time>2015-11-08T11:49:57Z</time>
      </trkpt>
      <trkpt lat="50.11814" lon="3.62508">
        <ele>160.2</ele>
        <time>2015-11-08T11:49:58Z</time>
      </trkpt>
      <trkpt lat="50.11797" lon="3.62539">
        <ele>161.64</ele>
        <time>2015-11-08T11:50:15Z</time>
      </trkpt>
      <trkpt lat="50.11785" lon="3.62566">
        <ele>163.56</ele>
        <time>2015-11-08T11:50:28Z</time>
      </trkpt>
      <trkpt lat="50.11785" lon="3.6257">
        <ele>163.56</ele>
        <time>2015-11-08T11:50:29Z</time>
      </trkpt>
      <trkpt lat="50.11786" lon="3.62574">
        <ele>163.56</ele>
        <time>2015-11-08T11:50:31Z</time>
      </trkpt>
      <trkpt lat="50.11787" lon="3.62576">
        <ele>163.56</ele>
        <time>2015-11-08T11:50:32Z</time>
      </trkpt>
      <trkpt lat="50.11789" lon="3.62582">
        <ele>163.56</ele>
        <time>2015-11-08T11:50:35Z</time>
      </trkpt>
      <trkpt lat="50.11791" lon="3.62585">
        <ele>163.08</ele>
        <time>2015-11-08T11:50:37Z</time>
      </trkpt>
      <trkpt lat="50.11791" lon="3.62588">
        <ele>163.08</ele>
        <time>2015-11-08T11:50:38Z</time>
      </trkpt>
      <trkpt lat="50.11792" lon="3.62591">
        <ele>163.56</ele>
        <time>2015-11-08T11:50:39Z</time>
      </trkpt>
      <trkpt lat="50.11794" lon="3.62593">
        <ele>163.56</ele>
        <time>2015-11-08T11:50:40Z</time>
      </trkpt>
      <trkpt lat="50.11795" lon="3.62595">
        <ele>163.56</ele>
        <time>2015-11-08T11:50:41Z</time>
      </trkpt>
      <trkpt lat="50.11795" lon="3.62597">
        <ele>163.56</ele>
        <time>2015-11-08T11:50:42Z</time>
      </trkpt>
      <trkpt lat="50.11796" lon="3.62599">
        <ele>163.56</ele>
        <time>2015-11-08T11:50:43Z</time>
      </trkpt>
      <trkpt lat="50.11797" lon="3.62602">
        <ele>163.56</ele>
        <time>2015-11-08T11:50:44Z</time>
      </trkpt>
      <trkpt lat="50.11798" lon="3.62604">
        <ele>163.56</ele>
        <time>2015-11-08T11:50:45Z</time>
      </trkpt>
      <trkpt lat="50.1181" lon="3.62624">
        <ele>163.56</ele>
        <time>2015-11-08T11:50:54Z</time>
      </trkpt>
      <trkpt lat="50.11828" lon="3.62664">
        <ele>164.04</ele>
        <time>2015-11-08T11:51:07Z</time>
      </trkpt>
      <trkpt lat="50.11855" lon="3.62716">
        <ele>164.52</ele>
        <time>2015-11-08T11:51:24Z</time>
      </trkpt>
      <trkpt lat="50.1188" lon="3.62764">
        <ele>164.04</ele>
        <time>2015-11-08T11:51:40Z</time>
      </trkpt>
      <trkpt lat="50.11906" lon="3.62818">
        <ele>164.52</ele>
        <time>2015-11-08T11:51:57Z</time>
      </trkpt>
      <trkpt lat="50.11933" lon="3.6287">
        <ele>165</ele>
        <time>2015-11-08T11:52:15Z</time>
      </trkpt>
      <trkpt lat="50.11954" lon="3.62913">
        <ele>165</ele>
        <time>2015-11-08T11:52:32Z</time>
      </trkpt>
      <trkpt lat="50.11973" lon="3.62955">
        <ele>165.48</ele>
        <time>2015-11-08T11:52:46Z</time>
      </trkpt>
      <trkpt lat="50.11998" lon="3.63005">
        <ele>166.45</ele>
        <time>2015-11-08T11:53:03Z</time>
      </trkpt>
      <trkpt lat="50.1202" lon="3.63047">
        <ele>166.93</ele>
        <time>2015-11-08T11:53:18Z</time>
      </trkpt>
      <trkpt lat="50.12047" lon="3.63097">
        <ele>167.89</ele>
        <time>2015-11-08T11:53:36Z</time>
      </trkpt>
      <trkpt lat="50.12072" lon="3.63146">
        <ele>167.41</ele>
        <time>2015-11-08T11:53:54Z</time>
      </trkpt>
      <trkpt lat="50.12094" lon="3.63193">
        <ele>167.41</ele>
        <time>2015-11-08T11:54:12Z</time>
      </trkpt>
      <trkpt lat="50.12112" lon="3.63233">
        <ele>167.89</ele>
        <time>2015-11-08T11:54:27Z</time>
      </trkpt>
      <trkpt lat="50.12134" lon="3.63274">
        <ele>167.89</ele>
        <time>2015-11-08T11:54:43Z</time>
      </trkpt>
      <trkpt lat="50.12158" lon="3.6332">
        <ele>165.96</ele>
        <time>2015-11-08T11:54:58Z</time>
      </trkpt>
      <trkpt lat="50.12191" lon="3.63378">
        <ele>164.04</ele>
        <time>2015-11-08T11:55:13Z</time>
      </trkpt>
      <trkpt lat="50.12237" lon="3.63442">
        <ele>161.64</ele>
        <time>2015-11-08T11:55:29Z</time>
      </trkpt>
      <trkpt lat="50.12278" lon="3.63481">
        <ele>160.68</ele>
        <time>2015-11-08T11:55:42Z</time>
      </trkpt>
      <trkpt lat="50.12317" lon="3.63511">
        <ele>160.2</ele>
        <time>2015-11-08T11:55:59Z</time>
      </trkpt>
      <trkpt lat="50.12348" lon="3.63541">
        <ele>161.16</ele>
        <time>2015-11-08T11:56:16Z</time>
      </trkpt>
      <trkpt lat="50.12349" lon="3.63546">
        <ele>161.64</ele>
        <time>2015-11-08T11:56:44Z</time>
      </trkpt>
      <trkpt lat="50.1235" lon="3.63546">
        <ele>161.64</ele>
        <time>2015-11-08T11:56:50Z</time>
      </trkpt>
      <trkpt lat="50.12351" lon="3.63547">
        <ele>161.64</ele>
        <time>2015-11-08T11:56:51Z</time>
      </trkpt>
      <trkpt lat="50.12353" lon="3.63549">
        <ele>161.64</ele>
        <time>2015-11-08T11:56:52Z</time>
      </trkpt>
      <trkpt lat="50.12355" lon="3.63551">
        <ele>161.64</ele>
        <time>2015-11-08T11:56:53Z</time>
      </trkpt>
      <trkpt lat="50.12358" lon="3.63553">
        <ele>161.64</ele>
        <time>2015-11-08T11:56:54Z</time>
      </trkpt>
      <trkpt lat="50.12377" lon="3.63569">
        <ele>161.64</ele>
        <time>2015-11-08T11:56:59Z</time>
      </trkpt>
      <trkpt lat="50.12398" lon="3.63587">
        <ele>162.12</ele>
        <time>2015-11-08T11:57:04Z</time>
      </trkpt>
      <trkpt lat="50.12403" lon="3.6359">
        <ele>162.6</ele>
        <time>2015-11-08T11:57:05Z</time>
      </trkpt>
      <trkpt lat="50.12464" lon="3.63642">
        <ele>163.08</ele>
        <time>2015-11-08T11:57:21Z</time>
      </trkpt>
      <trkpt lat="50.1251" lon="3.63683">
        <ele>162.6</ele>
        <time>2015-11-08T11:57:36Z</time>
      </trkpt>
      <trkpt lat="50.12558" lon="3.63731">
        <ele>163.08</ele>
        <time>2015-11-08T11:57:52Z</time>
      </trkpt>
      <trkpt lat="50.12595" lon="3.63767">
        <ele>163.56</ele>
        <time>2015-11-08T11:58:05Z</time>
      </trkpt>
      <trkpt lat="50.12647" lon="3.63812">
        <ele>164.52</ele>
        <time>2015-11-08T11:58:23Z</time>
      </trkpt>
      <trkpt lat="50.12693" lon="3.63838">
        <ele>164.52</ele>
        <time>2015-11-08T11:58:41Z</time>
      </trkpt>
      <trkpt lat="50.12728" lon="3.63853">
        <ele>165</ele>
        <time>2015-11-08T11:58:59Z</time>
      </trkpt>
      <trkpt lat="50.12761" lon="3.63863">
        <ele>165</ele>
        <time>2015-11-08T11:59:14Z</time>
      </trkpt>
      <trkpt lat="50.12791" lon="3.63875">
        <ele>165</ele>
        <time>2015-11-08T11:59:30Z</time>
      </trkpt>
      <trkpt lat="50.12833" lon="3.6389">
        <ele>165</ele>
        <time>2015-11-08T11:59:47Z</time>
      </trkpt>
      <trkpt lat="50.12869" lon="3.63898">
        <ele>165</ele>
        <time>2015-11-08T12:00:00Z</time>
      </trkpt>
      <trkpt lat="50.12899" lon="3.63908">
        <ele>163.56</ele>
        <time>2015-11-08T12:00:09Z</time>
      </trkpt>
      <trkpt lat="50.12919" lon="3.63916">
        <ele>163.08</ele>
        <time>2015-11-08T12:00:19Z</time>
      </trkpt>
      <trkpt lat="50.12957" lon="3.63931">
        <ele>162.12</ele>
        <time>2015-11-08T12:00:32Z</time>
      </trkpt>
      <trkpt lat="50.13008" lon="3.63943">
        <ele>161.64</ele>
        <time>2015-11-08T12:00:49Z</time>
      </trkpt>
      <trkpt lat="50.13059" lon="3.63963">
        <ele>161.64</ele>
        <time>2015-11-08T12:01:04Z</time>
      </trkpt>
      <trkpt lat="50.1306" lon="3.63967">
        <ele>161.64</ele>
        <time>2015-11-08T12:01:05Z</time>
      </trkpt>
      <trkpt lat="50.13059" lon="3.63971">
        <ele>161.64</ele>
        <time>2015-11-08T12:01:06Z</time>
      </trkpt>
      <trkpt lat="50.13049" lon="3.64022">
        <ele>161.16</ele>
        <time>2015-11-08T12:01:21Z</time>
      </trkpt>
      <trkpt lat="50.13056" lon="3.64086">
        <ele>161.16</ele>
        <time>2015-11-08T12:01:37Z</time>
      </trkpt>
      <trkpt lat="50.1307" lon="3.64137">
        <ele>161.16</ele>
        <time>2015-11-08T12:01:55Z</time>
      </trkpt>
      <trkpt lat="50.1308" lon="3.64181">
        <ele>162.12</ele>
        <time>2015-11-08T12:02:11Z</time>
      </trkpt>
      <trkpt lat="50.13093" lon="3.6424">
        <ele>162.12</ele>
        <time>2015-11-08T12:02:29Z</time>
      </trkpt>
      <trkpt lat="50.1309" lon="3.64293">
        <ele>161.16</ele>
        <time>2015-11-08T12:02:42Z</time>
      </trkpt>
      <trkpt lat="50.13072" lon="3.64307">
        <ele>162.12</ele>
        <time>2015-11-08T12:02:51Z</time>
      </trkpt>
      <trkpt lat="50.13051" lon="3.64317">
        <ele>162.6</ele>
        <time>2015-11-08T12:03:07Z</time>
      </trkpt>
      <trkpt lat="50.1302" lon="3.64329">
        <ele>163.08</ele>
        <time>2015-11-08T12:03:23Z</time>
      </trkpt>
      <trkpt lat="50.12974" lon="3.64348">
        <ele>163.56</ele>
        <time>2015-11-08T12:03:37Z</time>
      </trkpt>
      <trkpt lat="50.12937" lon="3.64362">
        <ele>163.56</ele>
        <time>2015-11-08T12:03:50Z</time>
      </trkpt>
      <trkpt lat="50.12899" lon="3.64379">
        <ele>163.56</ele>
        <time>2015-11-08T12:04:04Z</time>
      </trkpt>
      <trkpt lat="50.12867" lon="3.64392">
        <ele>164.04</ele>
        <time>2015-11-08T12:04:17Z</time>
      </trkpt>
      <trkpt lat="50.12837" lon="3.6441">
        <ele>165</ele>
        <time>2015-11-08T12:04:30Z</time>
      </trkpt>
      <trkpt lat="50.12806" lon="3.64436">
        <ele>165.96</ele>
        <time>2015-11-08T12:04:43Z</time>
      </trkpt>
      <trkpt lat="50.12766" lon="3.64471">
        <ele>166.45</ele>
        <time>2015-11-08T12:05:02Z</time>
      </trkpt>
      <trkpt lat="50.12726" lon="3.64503">
        <ele>165</ele>
        <time>2015-11-08T12:05:18Z</time>
      </trkpt>
      <trkpt lat="50.12725" lon="3.64505">
        <ele>164.52</ele>
        <time>2015-11-08T12:05:29Z</time>
      </trkpt>
      <trkpt lat="50.12724" lon="3.64505">
        <ele>164.52</ele>
        <time>2015-11-08T12:05:53Z</time>
      </trkpt>
      <trkpt lat="50.12723" lon="3.64505">
        <ele>165.48</ele>
        <time>2015-11-08T12:06:10Z</time>
      </trkpt>
      <trkpt lat="50.12714" lon="3.64512">
        <ele>164.04</ele>
        <time>2015-11-08T12:06:21Z</time>
      </trkpt>
      <trkpt lat="50.1267" lon="3.64549">
        <ele>163.56</ele>
        <time>2015-11-08T12:06:35Z</time>
      </trkpt>
      <trkpt lat="50.12633" lon="3.6458">
        <ele>163.08</ele>
        <time>2015-11-08T12:06:48Z</time>
      </trkpt>
      <trkpt lat="50.12612" lon="3.64595">
        <ele>163.08</ele>
        <time>2015-11-08T12:07:00Z</time>
      </trkpt>
      <trkpt lat="50.12585" lon="3.64618">
        <ele>163.08</ele>
        <time>2015-11-08T12:07:15Z</time>
      </trkpt>
      <trkpt lat="50.12561" lon="3.64638">
        <ele>163.08</ele>
        <time>2015-11-08T12:07:29Z</time>
      </trkpt>
      <trkpt lat="50.12528" lon="3.64666">
        <ele>162.6</ele>
        <time>2015-11-08T12:07:47Z</time>
      </trkpt>
      <trkpt lat="50.12499" lon="3.64689">
        <ele>162.6</ele>
        <time>2015-11-08T12:08:04Z</time>
      </trkpt>
      <trkpt lat="50.12458" lon="3.64723">
        <ele>161.16</ele>
        <time>2015-11-08T12:08:21Z</time>
      </trkpt>
      <trkpt lat="50.12419" lon="3.64756">
        <ele>159.72</ele>
        <time>2015-11-08T12:08:39Z</time>
      </trkpt>
      <trkpt lat="50.12379" lon="3.64789">
        <ele>157.79</ele>
        <time>2015-11-08T12:08:56Z</time>
      </trkpt>
      <trkpt lat="50.1235" lon="3.64815">
        <ele>157.31</ele>
        <time>2015-11-08T12:09:12Z</time>
      </trkpt>
      <trkpt lat="50.12316" lon="3.64843">
        <ele>156.35</ele>
        <time>2015-11-08T12:09:28Z</time>
      </trkpt>
      <trkpt lat="50.12272" lon="3.64882">
        <ele>153.95</ele>
        <time>2015-11-08T12:09:45Z</time>
      </trkpt>
      <trkpt lat="50.1223" lon="3.64915">
        <ele>152.51</ele>
        <time>2015-11-08T12:09:58Z</time>
      </trkpt>
      <trkpt lat="50.12194" lon="3.64945">
        <ele>150.58</ele>
        <time>2015-11-08T12:10:08Z</time>
      </trkpt>
      <trkpt lat="50.1216" lon="3.64974">
        <ele>149.14</ele>
        <time>2015-11-08T12:10:16Z</time>
      </trkpt>
      <trkpt lat="50.12084" lon="3.65057">
        <ele>145.78</ele>
        <time>2015-11-08T12:10:34Z</time>
      </trkpt>
      <trkpt lat="50.12022" lon="3.65142">
        <ele>143.85</ele>
        <time>2015-11-08T12:10:52Z</time>
      </trkpt>
      <trkpt lat="50.11989" lon="3.65196">
        <ele>143.37</ele>
        <time>2015-11-08T12:11:07Z</time>
      </trkpt>
      <trkpt lat="50.11965" lon="3.65216">
        <ele>142.89</ele>
        <time>2015-11-08T12:11:19Z</time>
      </trkpt>
      <trkpt lat="50.11966" lon="3.65217">
        <ele>142.89</ele>
        <time>2015-11-08T12:11:45Z</time>
      </trkpt>
      <trkpt lat="50.11966" lon="3.65216">
        <ele>142.89</ele>
        <time>2015-11-08T12:12:18Z</time>
      </trkpt>
      <trkpt lat="50.11966" lon="3.65216">
        <ele>142.41</ele>
        <time>2015-11-08T12:12:47Z</time>
      </trkpt>
      <trkpt lat="50.11962" lon="3.65216">
        <ele>142.41</ele>
        <time>2015-11-08T12:13:02Z</time>
      </trkpt>
      <trkpt lat="50.1196" lon="3.65218">
        <ele>142.41</ele>
        <time>2015-11-08T12:13:03Z</time>
      </trkpt>
      <trkpt lat="50.11958" lon="3.65224">
        <ele>142.41</ele>
        <time>2015-11-08T12:13:05Z</time>
      </trkpt>
      <trkpt lat="50.11957" lon="3.65228">
        <ele>142.41</ele>
        <time>2015-11-08T12:13:06Z</time>
      </trkpt>
      <trkpt lat="50.11949" lon="3.6526">
        <ele>143.85</ele>
        <time>2015-11-08T12:13:15Z</time>
      </trkpt>
      <trkpt lat="50.11926" lon="3.65314">
        <ele>144.82</ele>
        <time>2015-11-08T12:13:30Z</time>
      </trkpt>
      <trkpt lat="50.11913" lon="3.65344">
        <ele>145.3</ele>
        <time>2015-11-08T12:13:41Z</time>
      </trkpt>
      <trkpt lat="50.11889" lon="3.65395">
        <ele>145.78</ele>
        <time>2015-11-08T12:13:55Z</time>
      </trkpt>
      <trkpt lat="50.11862" lon="3.65462">
        <ele>146.74</ele>
        <time>2015-11-08T12:14:10Z</time>
      </trkpt>
      <trkpt lat="50.11845" lon="3.6552">
        <ele>147.22</ele>
        <time>2015-11-08T12:14:24Z</time>
      </trkpt>
      <trkpt lat="50.11832" lon="3.65578">
        <ele>147.22</ele>
        <time>2015-11-08T12:14:40Z</time>
      </trkpt>
      <trkpt lat="50.11819" lon="3.65632">
        <ele>147.22</ele>
        <time>2015-11-08T12:14:57Z</time>
      </trkpt>
      <trkpt lat="50.11805" lon="3.65693">
        <ele>147.7</ele>
        <time>2015-11-08T12:15:11Z</time>
      </trkpt>
      <trkpt lat="50.11797" lon="3.65753">
        <ele>147.7</ele>
        <time>2015-11-08T12:15:25Z</time>
      </trkpt>
      <trkpt lat="50.11792" lon="3.6581">
        <ele>148.18</ele>
        <time>2015-11-08T12:15:39Z</time>
      </trkpt>
      <trkpt lat="50.11789" lon="3.65886">
        <ele>147.7</ele>
        <time>2015-11-08T12:15:57Z</time>
      </trkpt>
      <trkpt lat="50.11787" lon="3.65947">
        <ele>148.18</ele>
        <time>2015-11-08T12:16:12Z</time>
      </trkpt>
      <trkpt lat="50.11793" lon="3.66014">
        <ele>148.66</ele>
        <time>2015-11-08T12:16:27Z</time>
      </trkpt>
      <trkpt lat="50.11804" lon="3.66076">
        <ele>148.66</ele>
        <time>2015-11-08T12:16:42Z</time>
      </trkpt>
      <trkpt lat="50.11817" lon="3.66156">
        <ele>148.66</ele>
        <time>2015-11-08T12:17:00Z</time>
      </trkpt>
      <trkpt lat="50.11832" lon="3.66218">
        <ele>148.66</ele>
        <time>2015-11-08T12:17:17Z</time>
      </trkpt>
      <trkpt lat="50.11862" lon="3.66276">
        <ele>147.7</ele>
        <time>2015-11-08T12:17:35Z</time>
      </trkpt>
      <trkpt lat="50.11894" lon="3.66335">
        <ele>147.22</ele>
        <time>2015-11-08T12:17:56Z</time>
      </trkpt>
      <trkpt lat="50.11919" lon="3.66378">
        <ele>146.74</ele>
        <time>2015-11-08T12:18:12Z</time>
      </trkpt>
      <trkpt lat="50.11947" lon="3.66429">
        <ele>145.3</ele>
        <time>2015-11-08T12:18:26Z</time>
      </trkpt>
      <trkpt lat="50.11949" lon="3.66443">
        <ele>145.3</ele>
        <time>2015-11-08T12:18:29Z</time>
      </trkpt>
      <trkpt lat="50.11947" lon="3.66448">
        <ele>144.82</ele>
        <time>2015-11-08T12:18:30Z</time>
      </trkpt>
      <trkpt lat="50.11946" lon="3.66451">
        <ele>144.82</ele>
        <time>2015-11-08T12:18:31Z</time>
      </trkpt>
      <trkpt lat="50.11944" lon="3.66454">
        <ele>144.82</ele>
        <time>2015-11-08T12:18:32Z</time>
      </trkpt>
      <trkpt lat="50.11941" lon="3.66457">
        <ele>144.82</ele>
        <time>2015-11-08T12:18:33Z</time>
      </trkpt>
      <trkpt lat="50.11939" lon="3.6646">
        <ele>144.82</ele>
        <time>2015-11-08T12:18:34Z</time>
      </trkpt>
      <trkpt lat="50.119" lon="3.66525">
        <ele>144.34</ele>
        <time>2015-11-08T12:18:50Z</time>
      </trkpt>
      <trkpt lat="50.11876" lon="3.66574">
        <ele>144.34</ele>
        <time>2015-11-08T12:19:05Z</time>
      </trkpt>
      <trkpt lat="50.11876" lon="3.66577">
        <ele>144.34</ele>
        <time>2015-11-08T12:19:06Z</time>
      </trkpt>
      <trkpt lat="50.11877" lon="3.66581">
        <ele>144.34</ele>
        <time>2015-11-08T12:19:07Z</time>
      </trkpt>
      <trkpt lat="50.11879" lon="3.66585">
        <ele>144.34</ele>
        <time>2015-11-08T12:19:08Z</time>
      </trkpt>
      <trkpt lat="50.11881" lon="3.66589">
        <ele>143.85</ele>
        <time>2015-11-08T12:19:09Z</time>
      </trkpt>
      <trkpt lat="50.11883" lon="3.66592">
        <ele>143.85</ele>
        <time>2015-11-08T12:19:10Z</time>
      </trkpt>
      <trkpt lat="50.11916" lon="3.66654">
        <ele>142.41</ele>
        <time>2015-11-08T12:19:24Z</time>
      </trkpt>
      <trkpt lat="50.11946" lon="3.66706">
        <ele>141.93</ele>
        <time>2015-11-08T12:19:40Z</time>
      </trkpt>
      <trkpt lat="50.11974" lon="3.66751">
        <ele>141.93</ele>
        <time>2015-11-08T12:19:56Z</time>
      </trkpt>
      <trkpt lat="50.12003" lon="3.668">
        <ele>141.93</ele>
        <time>2015-11-08T12:20:12Z</time>
      </trkpt>
      <trkpt lat="50.12024" lon="3.66839">
        <ele>141.93</ele>
        <time>2015-11-08T12:20:26Z</time>
      </trkpt>
      <trkpt lat="50.12047" lon="3.66876">
        <ele>141.93</ele>
        <time>2015-11-08T12:20:41Z</time>
      </trkpt>
      <trkpt lat="50.12073" lon="3.66917">
        <ele>140.49</ele>
        <time>2015-11-08T12:20:56Z</time>
      </trkpt>
      <trkpt lat="50.12079" lon="3.66929">
        <ele>140.49</ele>
        <time>2015-11-08T12:21:01Z</time>
      </trkpt>
      <trkpt lat="50.12079" lon="3.6693">
        <ele>140.49</ele>
        <time>2015-11-08T12:21:15Z</time>
      </trkpt>
      <trkpt lat="50.1208" lon="3.66931">
        <ele>140.01</ele>
        <time>2015-11-08T12:21:39Z</time>
      </trkpt>
      <trkpt lat="50.12081" lon="3.66931">
        <ele>140.01</ele>
        <time>2015-11-08T12:21:58Z</time>
      </trkpt>
      <trkpt lat="50.12081" lon="3.66932">
        <ele>140.01</ele>
        <time>2015-11-08T12:22:07Z</time>
      </trkpt>
      <trkpt lat="50.12082" lon="3.66933">
        <ele>140.01</ele>
        <time>2015-11-08T12:22:40Z</time>
      </trkpt>
      <trkpt lat="50.12082" lon="3.66934">
        <ele>140.01</ele>
        <time>2015-11-08T12:23:09Z</time>
      </trkpt>
      <trkpt lat="50.1208" lon="3.66935">
        <ele>139.53</ele>
        <time>2015-11-08T12:23:39Z</time>
      </trkpt>
      <trkpt lat="50.12079" lon="3.66935">
        <ele>139.53</ele>
        <time>2015-11-08T12:24:10Z</time>
      </trkpt>
      <trkpt lat="50.12081" lon="3.66934">
        <ele>139.53</ele>
        <time>2015-11-08T12:24:44Z</time>
      </trkpt>
      <trkpt lat="50.12081" lon="3.66932">
        <ele>139.53</ele>
        <time>2015-11-08T12:25:12Z</time>
      </trkpt>
      <trkpt lat="50.12082" lon="3.66934">
        <ele>140.49</ele>
        <time>2015-11-08T12:25:25Z</time>
      </trkpt>
      <trkpt lat="50.12083" lon="3.66935">
        <ele>140.49</ele>
        <time>2015-11-08T12:25:47Z</time>
      </trkpt>
      <trkpt lat="50.12084" lon="3.66937">
        <ele>140.49</ele>
        <time>2015-11-08T12:25:55Z</time>
      </trkpt>
      <trkpt lat="50.12085" lon="3.66939">
        <ele>140.49</ele>
        <time>2015-11-08T12:25:56Z</time>
      </trkpt>
      <trkpt lat="50.12104" lon="3.66972">
        <ele>140.49</ele>
        <time>2015-11-08T12:26:11Z</time>
      </trkpt>
      <trkpt lat="50.12122" lon="3.67">
        <ele>140.49</ele>
        <time>2015-11-08T12:26:25Z</time>
      </trkpt>
      <trkpt lat="50.12128" lon="3.6701">
        <ele>140.49</ele>
        <time>2015-11-08T12:26:37Z</time>
      </trkpt>
      <trkpt lat="50.12128" lon="3.67011">
        <ele>140.01</ele>
        <time>2015-11-08T12:26:52Z</time>
      </trkpt>
      <trkpt lat="50.12129" lon="3.67012">
        <ele>140.01</ele>
        <time>2015-11-08T12:27:20Z</time>
      </trkpt>
      <trkpt lat="50.12136" lon="3.67024">
        <ele>140.49</ele>
        <time>2015-11-08T12:27:40Z</time>
      </trkpt>
      <trkpt lat="50.12144" lon="3.67037">
        <ele>140.97</ele>
        <time>2015-11-08T12:27:56Z</time>
      </trkpt>
      <trkpt lat="50.12158" lon="3.67059">
        <ele>140.97</ele>
        <time>2015-11-08T12:28:13Z</time>
      </trkpt>
      <trkpt lat="50.12172" lon="3.67081">
        <ele>141.93</ele>
        <time>2015-11-08T12:28:31Z</time>
      </trkpt>
      <trkpt lat="50.12187" lon="3.67107">
        <ele>142.41</ele>
        <time>2015-11-08T12:28:50Z</time>
      </trkpt>
      <trkpt lat="50.12202" lon="3.6713">
        <ele>141.93</ele>
        <time>2015-11-08T12:29:08Z</time>
      </trkpt>
      <trkpt lat="50.12218" lon="3.67156">
        <ele>141.93</ele>
        <time>2015-11-08T12:29:27Z</time>
      </trkpt>
      <trkpt lat="50.12229" lon="3.67174">
        <ele>141.93</ele>
        <time>2015-11-08T12:29:45Z</time>
      </trkpt>
      <trkpt lat="50.12243" lon="3.67197">
        <ele>142.41</ele>
        <time>2015-11-08T12:30:06Z</time>
      </trkpt>
      <trkpt lat="50.12256" lon="3.67219">
        <ele>142.41</ele>
        <time>2015-11-08T12:30:25Z</time>
      </trkpt>
      <trkpt lat="50.12269" lon="3.67241">
        <ele>142.41</ele>
        <time>2015-11-08T12:30:45Z</time>
      </trkpt>
      <trkpt lat="50.12272" lon="3.67246">
        <ele>141.93</ele>
        <time>2015-11-08T12:31:00Z</time>
      </trkpt>
      <trkpt lat="50.12279" lon="3.67256">
        <ele>141.93</ele>
        <time>2015-11-08T12:31:19Z</time>
      </trkpt>
      <trkpt lat="50.12293" lon="3.6728">
        <ele>141.93</ele>
        <time>2015-11-08T12:31:37Z</time>
      </trkpt>
      <trkpt lat="50.12308" lon="3.67307">
        <ele>140.01</ele>
        <time>2015-11-08T12:31:59Z</time>
      </trkpt>
      <trkpt lat="50.12318" lon="3.6733">
        <ele>140.01</ele>
        <time>2015-11-08T12:32:15Z</time>
      </trkpt>
      <trkpt lat="50.12325" lon="3.67364">
        <ele>139.53</ele>
        <time>2015-11-08T12:32:34Z</time>
      </trkpt>
      <trkpt lat="50.12335" lon="3.67397">
        <ele>139.53</ele>
        <time>2015-11-08T12:32:53Z</time>
      </trkpt>
      <trkpt lat="50.12341" lon="3.67426">
        <ele>139.53</ele>
        <time>2015-11-08T12:33:11Z</time>
      </trkpt>
      <trkpt lat="50.12341" lon="3.67429">
        <ele>139.53</ele>
        <time>2015-11-08T12:33:12Z</time>
      </trkpt>
      <trkpt lat="50.12341" lon="3.6743">
        <ele>139.53</ele>
        <time>2015-11-08T12:33:13Z</time>
      </trkpt>
      <trkpt lat="50.12341" lon="3.67433">
        <ele>139.53</ele>
        <time>2015-11-08T12:33:14Z</time>
      </trkpt>
      <trkpt lat="50.12342" lon="3.67435">
        <ele>139.53</ele>
        <time>2015-11-08T12:33:15Z</time>
      </trkpt>
      <trkpt lat="50.1235" lon="3.67462">
        <ele>139.53</ele>
        <time>2015-11-08T12:33:32Z</time>
      </trkpt>
      <trkpt lat="50.12359" lon="3.67495">
        <ele>139.53</ele>
        <time>2015-11-08T12:33:51Z</time>
      </trkpt>
      <trkpt lat="50.1236" lon="3.67502">
        <ele>139.05</ele>
        <time>2015-11-08T12:33:55Z</time>
      </trkpt>
      <trkpt lat="50.12358" lon="3.67506">
        <ele>139.05</ele>
        <time>2015-11-08T12:34:02Z</time>
      </trkpt>
      <trkpt lat="50.12355" lon="3.67513">
        <ele>139.05</ele>
        <time>2015-11-08T12:34:15Z</time>
      </trkpt>
      <trkpt lat="50.12352" lon="3.67512">
        <ele>138.09</ele>
        <time>2015-11-08T12:34:32Z</time>
      </trkpt>
      <trkpt lat="50.12352" lon="3.67513">
        <ele>138.09</ele>
        <time>2015-11-08T12:34:59Z</time>
      </trkpt>
      <trkpt lat="50.12353" lon="3.67516">
        <ele>139.05</ele>
        <time>2015-11-08T12:35:15Z</time>
      </trkpt>
      <trkpt lat="50.12355" lon="3.67519">
        <ele>139.05</ele>
        <time>2015-11-08T12:35:45Z</time>
      </trkpt>
      <trkpt lat="50.12356" lon="3.67521">
        <ele>139.05</ele>
        <time>2015-11-08T12:35:46Z</time>
      </trkpt>
      <trkpt lat="50.12364" lon="3.67553">
        <ele>139.05</ele>
        <time>2015-11-08T12:36:04Z</time>
      </trkpt>
      <trkpt lat="50.1238" lon="3.67579">
        <ele>140.01</ele>
        <time>2015-11-08T12:36:23Z</time>
      </trkpt>
      <trkpt lat="50.12381" lon="3.67581">
        <ele>140.01</ele>
        <time>2015-11-08T12:36:35Z</time>
      </trkpt>
      <trkpt lat="50.12383" lon="3.67589">
        <ele>139.53</ele>
        <time>2015-11-08T12:36:46Z</time>
      </trkpt>
      <trkpt lat="50.12397" lon="3.67608">
        <ele>139.53</ele>
        <time>2015-11-08T12:37:04Z</time>
      </trkpt>
      <trkpt lat="50.12403" lon="3.67613">
        <ele>139.53</ele>
        <time>2015-11-08T12:37:10Z</time>
      </trkpt>
      <trkpt lat="50.12421" lon="3.67637">
        <ele>139.53</ele>
        <time>2015-11-08T12:37:31Z</time>
      </trkpt>
      <trkpt lat="50.12432" lon="3.67657">
        <ele>139.53</ele>
        <time>2015-11-08T12:37:49Z</time>
      </trkpt>
      <trkpt lat="50.12437" lon="3.67667">
        <ele>139.53</ele>
        <time>2015-11-08T12:38:02Z</time>
      </trkpt>
      <trkpt lat="50.12446" lon="3.67691">
        <ele>139.53</ele>
        <time>2015-11-08T12:38:16Z</time>
      </trkpt>
      <trkpt lat="50.12457" lon="3.67729">
        <ele>139.53</ele>
        <time>2015-11-08T12:38:37Z</time>
      </trkpt>
      <trkpt lat="50.12462" lon="3.67738">
        <ele>139.53</ele>
        <time>2015-11-08T12:38:50Z</time>
      </trkpt>
      <trkpt lat="50.12468" lon="3.67772">
        <ele>139.53</ele>
        <time>2015-11-08T12:39:09Z</time>
      </trkpt>
      <trkpt lat="50.12474" lon="3.67805">
        <ele>139.53</ele>
        <time>2015-11-08T12:39:26Z</time>
      </trkpt>
      <trkpt lat="50.12474" lon="3.67813">
        <ele>139.53</ele>
        <time>2015-11-08T12:39:30Z</time>
      </trkpt>
      <trkpt lat="50.12473" lon="3.67815">
        <ele>139.05</ele>
        <time>2015-11-08T12:39:31Z</time>
      </trkpt>
      <trkpt lat="50.12472" lon="3.67815">
        <ele>139.05</ele>
        <time>2015-11-08T12:39:32Z</time>
      </trkpt>
      <trkpt lat="50.12471" lon="3.67816">
        <ele>139.05</ele>
        <time>2015-11-08T12:39:33Z</time>
      </trkpt>
      <trkpt lat="50.12469" lon="3.67816">
        <ele>139.05</ele>
        <time>2015-11-08T12:39:34Z</time>
      </trkpt>
      <trkpt lat="50.12465" lon="3.67822">
        <ele>139.05</ele>
        <time>2015-11-08T12:39:39Z</time>
      </trkpt>
      <trkpt lat="50.12465" lon="3.67824">
        <ele>139.05</ele>
        <time>2015-11-08T12:39:40Z</time>
      </trkpt>
      <trkpt lat="50.12465" lon="3.67825">
        <ele>140.49</ele>
        <time>2015-11-08T12:39:48Z</time>
      </trkpt>
      <trkpt lat="50.12465" lon="3.67824">
        <ele>139.05</ele>
        <time>2015-11-08T12:39:50Z</time>
      </trkpt>
    </trkseg>
  </trk>
</gpx>